<?xml version='1.0' encoding='UTF-8'?><gpx version="1.1" creator="JPX - https://github.com/jenetics/jpx" xmlns="http://www.topografix.com/GPX/1/1"><trk><trkseg><trkpt lat="43.7746367" lon="11.2624467"><ele>56.00000000000001</ele><time>2026-04-03T12:58:45.907Z</time></trkpt><trkpt lat="43.7745783" lon="11.262375"><ele>56.0</ele><time>2026-04-03T12:58:57.907Z</time></trkpt><trkpt lat="43.774515" lon="11.2623633"><ele>56.0</ele><time>2026-04-03T12:59:07.907Z</time></trkpt><trkpt lat="43.7744517" lon="11.2623117"><ele>56.0</ele><time>2026-04-03T12:59:15.908Z</time></trkpt><trkpt lat="43.7743883" lon="11.2622567"><ele>56.00000000000001</ele><time>2026-04-03T12:59:18.907Z</time></trkpt><trkpt lat="43.7743067" lon="11.2622083"><ele>56.0</ele><time>2026-04-03T12:59:21.907Z</time></trkpt><trkpt lat="43.7742233" lon="11.26215"><ele>55.833333333333336</ele><time>2026-04-03T12:59:24.907Z</time></trkpt><trkpt lat="43.7741567" lon="11.262105"><ele>55.66666666666667</ele><time>2026-04-03T12:59:26.907Z</time></trkpt><trkpt lat="43.7740917" lon="11.262055"><ele>55.5</ele><time>2026-04-03T12:59:28.907Z</time></trkpt><trkpt lat="43.77403" lon="11.262015"><ele>55.33333333333333</ele><time>2026-04-03T12:59:30.908Z</time></trkpt><trkpt lat="43.7739467" lon="11.2619533"><ele>55.166666666666664</ele><time>2026-04-03T12:59:33.907Z</time></trkpt><trkpt lat="43.7738717" lon="11.2618883"><ele>55.0</ele><time>2026-04-03T12:59:36.907Z</time></trkpt><trkpt lat="43.7738217" lon="11.2618317"><ele>54.99999999999999</ele><time>2026-04-03T12:59:38.906Z</time></trkpt><trkpt lat="43.7737683" lon="11.26175"><ele>55.0</ele><time>2026-04-03T12:59:41.907Z</time></trkpt><trkpt lat="43.7737233" lon="11.2616617"><ele>55.0</ele><time>2026-04-03T12:59:44.907Z</time></trkpt><trkpt lat="43.7736717" lon="11.2616083"><ele>55.0</ele><time>2026-04-03T12:59:46.906Z</time></trkpt><trkpt lat="43.7736167" lon="11.2615433"><ele>55.0</ele><time>2026-04-03T12:59:49.906Z</time></trkpt><trkpt lat="43.7735683" lon="11.2614767"><ele>54.99999999999999</ele><time>2026-04-03T12:59:51.907Z</time></trkpt><trkpt lat="43.7735067" lon="11.261405"><ele>55.0</ele><time>2026-04-03T12:59:53.906Z</time></trkpt><trkpt lat="43.7734633" lon="11.2613283"><ele>54.99999999999999</ele><time>2026-04-03T12:59:55.906Z</time></trkpt><trkpt lat="43.773405" lon="11.2612367"><ele>55.0</ele><time>2026-04-03T12:59:58.906Z</time></trkpt><trkpt lat="43.7733367" lon="11.26118"><ele>55.0</ele><time>2026-04-03T13:00:01.906Z</time></trkpt><trkpt lat="43.7732517" lon="11.2611367"><ele>55.0</ele><time>2026-04-03T13:00:04.906Z</time></trkpt><trkpt lat="43.773185" lon="11.2611033"><ele>54.99999999999999</ele><time>2026-04-03T13:00:06.907Z</time></trkpt><trkpt lat="43.773125" lon="11.261"><ele>55.0</ele><time>2026-04-03T13:00:09.906Z</time></trkpt><trkpt lat="43.7731083" lon="11.2608967"><ele>54.99999999999999</ele><time>2026-04-03T13:00:11.906Z</time></trkpt><trkpt lat="43.773055" lon="11.26081"><ele>55.0</ele><time>2026-04-03T13:00:13.906Z</time></trkpt><trkpt lat="43.77301" lon="11.2607433"><ele>55.0</ele><time>2026-04-03T13:00:15.907Z</time></trkpt><trkpt lat="43.7729417" lon="11.26069"><ele>55.0</ele><time>2026-04-03T13:00:17.906Z</time></trkpt><trkpt lat="43.7728483" lon="11.2606317"><ele>54.99999999999999</ele><time>2026-04-03T13:00:20.907Z</time></trkpt><trkpt lat="43.772785" lon="11.2605833"><ele>55.0</ele><time>2026-04-03T13:00:24.907Z</time></trkpt><trkpt lat="43.7727233" lon="11.2605567"><ele>54.99999999999999</ele><time>2026-04-03T13:00:28.906Z</time></trkpt><trkpt lat="43.7727617" lon="11.2604567"><ele>55.0</ele><time>2026-04-03T13:00:33.906Z</time></trkpt><trkpt lat="43.772815" lon="11.2603717"><ele>55.0</ele><time>2026-04-03T13:00:36.906Z</time></trkpt><trkpt lat="43.7728367" lon="11.2602667"><ele>55.0</ele><time>2026-04-03T13:00:39.907Z</time></trkpt><trkpt lat="43.772895" lon="11.2601767"><ele>54.99999999999999</ele><time>2026-04-03T13:00:42.906Z</time></trkpt><trkpt lat="43.7729833" lon="11.2601417"><ele>55.0</ele><time>2026-04-03T13:00:45.906Z</time></trkpt><trkpt lat="43.7730383" lon="11.26008"><ele>54.99999999999999</ele><time>2026-04-03T13:00:47.906Z</time></trkpt><trkpt lat="43.7730967" lon="11.2600283"><ele>55.0</ele><time>2026-04-03T13:00:49.906Z</time></trkpt><trkpt lat="43.7731383" lon="11.25996"><ele>55.0</ele><time>2026-04-03T13:00:52.906Z</time></trkpt><trkpt lat="43.7731283" lon="11.259865"><ele>55.0</ele><time>2026-04-03T13:00:56.906Z</time></trkpt><trkpt lat="43.773075" lon="11.2597983"><ele>55.0</ele><time>2026-04-03T13:00:59.906Z</time></trkpt><trkpt lat="43.7730283" lon="11.2597"><ele>54.99999999999999</ele><time>2026-04-03T13:01:02.906Z</time></trkpt><trkpt lat="43.772965" lon="11.2596433"><ele>55.0</ele><time>2026-04-03T13:01:05.906Z</time></trkpt><trkpt lat="43.7729217" lon="11.2595617"><ele>55.49999999999999</ele><time>2026-04-03T13:01:07.906Z</time></trkpt><trkpt lat="43.7728783" lon="11.2594717"><ele>56.0</ele><time>2026-04-03T13:01:10.906Z</time></trkpt><trkpt lat="43.7728" lon="11.25939"><ele>56.5</ele><time>2026-04-03T13:01:13.906Z</time></trkpt><trkpt lat="43.7727183" lon="11.2592983"><ele>57.0</ele><time>2026-04-03T13:01:15.906Z</time></trkpt><trkpt lat="43.772675" lon="11.259215"><ele>57.49999999999999</ele><time>2026-04-03T13:01:17.906Z</time></trkpt><trkpt lat="43.7726367" lon="11.2591283"><ele>58.0</ele><time>2026-04-03T13:01:20.907Z</time></trkpt><trkpt lat="43.772565" lon="11.25909"><ele>57.99999999999999</ele><time>2026-04-03T13:01:23.906Z</time></trkpt><trkpt lat="43.7725483" lon="11.2590017"><ele>58.0</ele><time>2026-04-03T13:01:25.906Z</time></trkpt><trkpt lat="43.772555" lon="11.25889"><ele>58.0</ele><time>2026-04-03T13:01:27.907Z</time></trkpt><trkpt lat="43.7725667" lon="11.25878"><ele>58.0</ele><time>2026-04-03T13:01:29.906Z</time></trkpt><trkpt lat="43.77256" lon="11.2586533"><ele>57.99999999999999</ele><time>2026-04-03T13:01:32.906Z</time></trkpt><trkpt lat="43.77254" lon="11.25853"><ele>58.0</ele><time>2026-04-03T13:01:35.907Z</time></trkpt><trkpt lat="43.772515" lon="11.2584183"><ele>57.85714285714286</ele><time>2026-04-03T13:01:37.907Z</time></trkpt><trkpt lat="43.7725133" lon="11.2583267"><ele>57.714285714285715</ele><time>2026-04-03T13:01:39.906Z</time></trkpt><trkpt lat="43.7725367" lon="11.2582367"><ele>57.57142857142857</ele><time>2026-04-03T13:01:41.906Z</time></trkpt><trkpt lat="43.77254" lon="11.258145"><ele>57.42857142857143</ele><time>2026-04-03T13:01:43.907Z</time></trkpt><trkpt lat="43.7725267" lon="11.2580483"><ele>57.28571428571428</ele><time>2026-04-03T13:01:46.906Z</time></trkpt><trkpt lat="43.7725733" lon="11.2579483"><ele>57.14285714285714</ele><time>2026-04-03T13:01:50.906Z</time></trkpt><trkpt lat="43.7725933" lon="11.257855"><ele>57.0</ele><time>2026-04-03T13:01:52.906Z</time></trkpt><trkpt lat="43.7726267" lon="11.2577733"><ele>57.5</ele><time>2026-04-03T13:01:55.906Z</time></trkpt><trkpt lat="43.772645" lon="11.25767"><ele>58.0</ele><time>2026-04-03T13:02:00.907Z</time></trkpt><trkpt lat="43.77265" lon="11.2575483"><ele>58.5</ele><time>2026-04-03T13:02:03.907Z</time></trkpt><trkpt lat="43.7726783" lon="11.2574417"><ele>59.0</ele><time>2026-04-03T13:02:06.906Z</time></trkpt><trkpt lat="43.772685" lon="11.2573283"><ele>59.5</ele><time>2026-04-03T13:02:10.907Z</time></trkpt><trkpt lat="43.772675" lon="11.2572017"><ele>60.0</ele><time>2026-04-03T13:02:13.906Z</time></trkpt><trkpt lat="43.77269" lon="11.2570883"><ele>60.0</ele><time>2026-04-03T13:02:15.906Z</time></trkpt><trkpt lat="43.7727" lon="11.256965"><ele>60.0</ele><time>2026-04-03T13:02:18.907Z</time></trkpt><trkpt lat="43.7727283" lon="11.2568633"><ele>60.0</ele><time>2026-04-03T13:02:20.906Z</time></trkpt><trkpt lat="43.77275" lon="11.256775"><ele>60.0</ele><time>2026-04-03T13:02:22.906Z</time></trkpt><trkpt lat="43.77278" lon="11.2566867"><ele>60.0</ele><time>2026-04-03T13:02:24.906Z</time></trkpt><trkpt lat="43.7728117" lon="11.2565917"><ele>60.0</ele><time>2026-04-03T13:02:27.906Z</time></trkpt><trkpt lat="43.7728183" lon="11.2564833"><ele>58.833333333333336</ele><time>2026-04-03T13:02:30.906Z</time></trkpt><trkpt lat="43.7728283" lon="11.256395"><ele>57.66666666666667</ele><time>2026-04-03T13:02:33.907Z</time></trkpt><trkpt lat="43.7728583" lon="11.25629"><ele>56.5</ele><time>2026-04-03T13:02:38.906Z</time></trkpt><trkpt lat="43.7728767" lon="11.25619"><ele>55.333333333333336</ele><time>2026-04-03T13:02:41.906Z</time></trkpt><trkpt lat="43.77288" lon="11.256075"><ele>54.16666666666667</ele><time>2026-04-03T13:02:44.906Z</time></trkpt><trkpt lat="43.7728633" lon="11.2559817"><ele>53.0</ele><time>2026-04-03T13:02:47.907Z</time></trkpt><trkpt lat="43.7728183" lon="11.2558767"><ele>53.0</ele><time>2026-04-03T13:02:50.906Z</time></trkpt><trkpt lat="43.7728367" lon="11.25578"><ele>53.0</ele><time>2026-04-03T13:02:56.907Z</time></trkpt><trkpt lat="43.77284" lon="11.2556883"><ele>53.0</ele><time>2026-04-03T13:03:01.906Z</time></trkpt><trkpt lat="43.7728517" lon="11.255575"><ele>53.0</ele><time>2026-04-03T13:03:04.906Z</time></trkpt><trkpt lat="43.772875" lon="11.2554917"><ele>53.0</ele><time>2026-04-03T13:03:08.906Z</time></trkpt><trkpt lat="43.77293" lon="11.2554467"><ele>53.0</ele><time>2026-04-03T13:03:24.906Z</time></trkpt><trkpt lat="43.772925" lon="11.255325"><ele>53.0</ele><time>2026-04-03T13:03:29.907Z</time></trkpt><trkpt lat="43.7729433" lon="11.2552383"><ele>52.833333333333336</ele><time>2026-04-03T13:03:31.907Z</time></trkpt><trkpt lat="43.772965" lon="11.2551317"><ele>52.66666666666667</ele><time>2026-04-03T13:03:33.907Z</time></trkpt><trkpt lat="43.7729583" lon="11.25501"><ele>52.5</ele><time>2026-04-03T13:03:36.906Z</time></trkpt><trkpt lat="43.7729567" lon="11.2549117"><ele>52.33333333333333</ele><time>2026-04-03T13:03:39.906Z</time></trkpt><trkpt lat="43.772945" lon="11.2548"><ele>52.166666666666664</ele><time>2026-04-03T13:03:44.907Z</time></trkpt><trkpt lat="43.772895" lon="11.2546917"><ele>52.0</ele><time>2026-04-03T13:03:47.907Z</time></trkpt><trkpt lat="43.7728767" lon="11.25459"><ele>52.71428571428571</ele><time>2026-04-03T13:03:50.907Z</time></trkpt><trkpt lat="43.7728567" lon="11.2545"><ele>53.42857142857143</ele><time>2026-04-03T13:03:55.907Z</time></trkpt><trkpt lat="43.7728517" lon="11.2544117"><ele>54.14285714285714</ele><time>2026-04-03T13:03:59.907Z</time></trkpt><trkpt lat="43.7728583" lon="11.254315"><ele>54.857142857142854</ele><time>2026-04-03T13:04:01.906Z</time></trkpt><trkpt lat="43.7728667" lon="11.2541917"><ele>55.57142857142857</ele><time>2026-04-03T13:04:04.906Z</time></trkpt><trkpt lat="43.7728683" lon="11.254085"><ele>56.285714285714285</ele><time>2026-04-03T13:04:09.906Z</time></trkpt><trkpt lat="43.7728367" lon="11.2540033"><ele>57.0</ele><time>2026-04-03T13:04:12.906Z</time></trkpt><trkpt lat="43.77276" lon="11.2539"><ele>57.57142857142857</ele><time>2026-04-03T13:04:14.906Z</time></trkpt><trkpt lat="43.7727367" lon="11.2538167"><ele>58.14285714285714</ele><time>2026-04-03T13:04:17.906Z</time></trkpt><trkpt lat="43.77271" lon="11.25373"><ele>58.71428571428571</ele><time>2026-04-03T13:04:21.907Z</time></trkpt><trkpt lat="43.7727233" lon="11.2536333"><ele>59.28571428571428</ele><time>2026-04-03T13:04:22.907Z</time></trkpt><trkpt lat="43.7727367" lon="11.2535433"><ele>59.857142857142854</ele><time>2026-04-03T13:04:27.906Z</time></trkpt><trkpt lat="43.7727183" lon="11.253435"><ele>60.428571428571416</ele><time>2026-04-03T13:04:31.906Z</time></trkpt><trkpt lat="43.7727" lon="11.2533483"><ele>60.99999999999999</ele><time>2026-04-03T13:04:34.906Z</time></trkpt><trkpt lat="43.7726883" lon="11.2532533"><ele>60.99999999999999</ele><time>2026-04-03T13:04:37.907Z</time></trkpt><trkpt lat="43.772665" lon="11.2531683"><ele>61.0</ele><time>2026-04-03T13:04:40.906Z</time></trkpt><trkpt lat="43.772685" lon="11.2530533"><ele>61.0</ele><time>2026-04-03T13:04:43.906Z</time></trkpt><trkpt lat="43.7727033" lon="11.2529383"><ele>61.0</ele><time>2026-04-03T13:04:46.906Z</time></trkpt><trkpt lat="43.772715" lon="11.2528267"><ele>60.99999999999999</ele><time>2026-04-03T13:04:50.906Z</time></trkpt><trkpt lat="43.772725" lon="11.252735"><ele>61.0</ele><time>2026-04-03T13:04:53.906Z</time></trkpt><trkpt lat="43.7727333" lon="11.25263"><ele>60.99999999999999</ele><time>2026-04-03T13:04:56.906Z</time></trkpt><trkpt lat="43.7727033" lon="11.2525283"><ele>61.0</ele><time>2026-04-03T13:05:00.906Z</time></trkpt><trkpt lat="43.7727183" lon="11.2524333"><ele>61.0</ele><time>2026-04-03T13:05:03.906Z</time></trkpt><trkpt lat="43.77277" lon="11.252335"><ele>61.0</ele><time>2026-04-03T13:05:05.906Z</time></trkpt><trkpt lat="43.7727917" lon="11.2522467"><ele>60.99999999999999</ele><time>2026-04-03T13:05:08.906Z</time></trkpt><trkpt lat="43.7727917" lon="11.2521583"><ele>61.0</ele><time>2026-04-03T13:05:17.906Z</time></trkpt><trkpt lat="43.772775" lon="11.2520467"><ele>61.33333333333333</ele><time>2026-04-03T13:05:21.906Z</time></trkpt><trkpt lat="43.77278" lon="11.25192"><ele>61.666666666666664</ele><time>2026-04-03T13:05:24.906Z</time></trkpt><trkpt lat="43.7727867" lon="11.2518083"><ele>62.0</ele><time>2026-04-03T13:05:26.906Z</time></trkpt><trkpt lat="43.7727517" lon="11.25171"><ele>62.33333333333333</ele><time>2026-04-03T13:05:29.906Z</time></trkpt><trkpt lat="43.772715" lon="11.25163"><ele>62.666666666666664</ele><time>2026-04-03T13:05:32.906Z</time></trkpt><trkpt lat="43.7726583" lon="11.2515833"><ele>63.0</ele><time>2026-04-03T13:05:35.906Z</time></trkpt><trkpt lat="43.7726267" lon="11.2514917"><ele>63.0</ele><time>2026-04-03T13:05:41.906Z</time></trkpt><trkpt lat="43.7726717" lon="11.2513317"><ele>63.0</ele><time>2026-04-03T13:05:45.906Z</time></trkpt><trkpt lat="43.7727417" lon="11.2511933"><ele>63.0</ele><time>2026-04-03T13:05:47.906Z</time></trkpt><trkpt lat="43.7727967" lon="11.2511117"><ele>63.0</ele><time>2026-04-03T13:05:49.906Z</time></trkpt><trkpt lat="43.7728167" lon="11.250995"><ele>63.0</ele><time>2026-04-03T13:05:52.907Z</time></trkpt><trkpt lat="43.772745" lon="11.250925"><ele>63.0</ele><time>2026-04-03T13:05:54.907Z</time></trkpt><trkpt lat="43.7727133" lon="11.2508233"><ele>63.0</ele><time>2026-04-03T13:05:58.906Z</time></trkpt><trkpt lat="43.7726833" lon="11.2507383"><ele>63.0</ele><time>2026-04-03T13:06:04.906Z</time></trkpt><trkpt lat="43.7726017" lon="11.25073"><ele>63.0</ele><time>2026-04-03T13:06:07.906Z</time></trkpt><trkpt lat="43.7724333" lon="11.2507"><ele>63.0</ele><time>2026-04-03T13:06:15.907Z</time></trkpt><trkpt lat="43.77224" lon="11.250575"><ele>63.0</ele><time>2026-04-03T13:06:17.906Z</time></trkpt><trkpt lat="43.7721683" lon="11.2505433"><ele>63.0</ele><time>2026-04-03T13:06:19.907Z</time></trkpt><trkpt lat="43.7721033" lon="11.25055"><ele>63.0</ele><time>2026-04-03T13:06:21.906Z</time></trkpt><trkpt lat="43.7720383" lon="11.2505583"><ele>63.0</ele><time>2026-04-03T13:06:25.906Z</time></trkpt><trkpt lat="43.7719583" lon="11.2505733"><ele>63.0</ele><time>2026-04-03T13:06:29.905Z</time></trkpt><trkpt lat="43.7719017" lon="11.2506267"><ele>63.0</ele><time>2026-04-03T13:06:32.905Z</time></trkpt><trkpt lat="43.7718533" lon="11.250715"><ele>63.0</ele><time>2026-04-03T13:06:35.905Z</time></trkpt><trkpt lat="43.771915" lon="11.2506733"><ele>62.0</ele><time>2026-04-03T13:06:45.906Z</time></trkpt><trkpt lat="43.7719633" lon="11.2505883"><ele>61.0</ele><time>2026-04-03T13:06:48.905Z</time></trkpt><trkpt lat="43.7720017" lon="11.2504933"><ele>60.0</ele><time>2026-04-03T13:06:52.905Z</time></trkpt><trkpt lat="43.7719433" lon="11.2503383"><ele>59.0</ele><time>2026-04-03T13:06:55.905Z</time></trkpt><trkpt lat="43.77193" lon="11.2502317"><ele>58.0</ele><time>2026-04-03T13:06:57.905Z</time></trkpt><trkpt lat="43.7718967" lon="11.25011"><ele>57.99999999999999</ele><time>2026-04-03T13:06:59.905Z</time></trkpt><trkpt lat="43.7719367" lon="11.25001"><ele>58.0</ele><time>2026-04-03T13:07:02.905Z</time></trkpt><trkpt lat="43.7720283" lon="11.2499317"><ele>58.0</ele><time>2026-04-03T13:07:04.905Z</time></trkpt><trkpt lat="43.7720833" lon="11.2498783"><ele>58.0</ele><time>2026-04-03T13:07:05.905Z</time></trkpt><trkpt lat="43.7721617" lon="11.2498233"><ele>57.99999999999999</ele><time>2026-04-03T13:07:07.905Z</time></trkpt><trkpt lat="43.7722317" lon="11.24974"><ele>58.0</ele><time>2026-04-03T13:07:10.906Z</time></trkpt><trkpt lat="43.772285" lon="11.2496717"><ele>57.99999999999999</ele><time>2026-04-03T13:07:13.905Z</time></trkpt><trkpt lat="43.7723133" lon="11.2495517"><ele>58.0</ele><time>2026-04-03T13:07:16.906Z</time></trkpt><trkpt lat="43.7723767" lon="11.2494583"><ele>58.0</ele><time>2026-04-03T13:07:19.905Z</time></trkpt><trkpt lat="43.772435" lon="11.2494217"><ele>58.0</ele><time>2026-04-03T13:07:21.905Z</time></trkpt><trkpt lat="43.7724483" lon="11.2493067"><ele>57.99999999999999</ele><time>2026-04-03T13:07:25.906Z</time></trkpt><trkpt lat="43.7724683" lon="11.2492167"><ele>58.0</ele><time>2026-04-03T13:07:31.905Z</time></trkpt><trkpt lat="43.7724983" lon="11.2491333"><ele>57.99999999999999</ele><time>2026-04-03T13:07:34.905Z</time></trkpt><trkpt lat="43.7725467" lon="11.2490233"><ele>58.0</ele><time>2026-04-03T13:07:36.905Z</time></trkpt><trkpt lat="43.77259" lon="11.248905"><ele>58.0</ele><time>2026-04-03T13:07:38.905Z</time></trkpt><trkpt lat="43.7726283" lon="11.2488133"><ele>58.0</ele><time>2026-04-03T13:07:40.905Z</time></trkpt><trkpt lat="43.7727233" lon="11.2487617"><ele>57.99999999999999</ele><time>2026-04-03T13:07:42.906Z</time></trkpt><trkpt lat="43.7727917" lon="11.2487"><ele>58.0</ele><time>2026-04-03T13:07:44.905Z</time></trkpt><trkpt lat="43.7728133" lon="11.2485983"><ele>57.599999999999994</ele><time>2026-04-03T13:07:46.905Z</time></trkpt><trkpt lat="43.7728583" lon="11.248495"><ele>57.199999999999996</ele><time>2026-04-03T13:07:48.905Z</time></trkpt><trkpt lat="43.7728483" lon="11.2483117"><ele>56.8</ele><time>2026-04-03T13:07:50.905Z</time></trkpt><trkpt lat="43.7728367" lon="11.2481417"><ele>56.4</ele><time>2026-04-03T13:07:51.905Z</time></trkpt><trkpt lat="43.7728667" lon="11.2480383"><ele>56.0</ele><time>2026-04-03T13:07:53.906Z</time></trkpt><trkpt lat="43.7728933" lon="11.2479567"><ele>55.66666666666667</ele><time>2026-04-03T13:07:55.906Z</time></trkpt><trkpt lat="43.7729433" lon="11.2478583"><ele>55.333333333333336</ele><time>2026-04-03T13:07:58.905Z</time></trkpt><trkpt lat="43.7730083" lon="11.24778"><ele>55.0</ele><time>2026-04-03T13:08:00.905Z</time></trkpt><trkpt lat="43.773085" lon="11.2477533"><ele>54.66666666666667</ele><time>2026-04-03T13:08:02.905Z</time></trkpt><trkpt lat="43.7731433" lon="11.2476967"><ele>54.333333333333336</ele><time>2026-04-03T13:08:04.905Z</time></trkpt><trkpt lat="43.7732083" lon="11.247635"><ele>54.0</ele><time>2026-04-03T13:08:06.905Z</time></trkpt><trkpt lat="43.7732867" lon="11.2475683"><ele>54.0</ele><time>2026-04-03T13:08:08.905Z</time></trkpt><trkpt lat="43.7733467" lon="11.2474933"><ele>54.0</ele><time>2026-04-03T13:08:10.906Z</time></trkpt><trkpt lat="43.7733967" lon="11.2474083"><ele>54.0</ele><time>2026-04-03T13:08:12.905Z</time></trkpt><trkpt lat="43.7734317" lon="11.2473083"><ele>54.0</ele><time>2026-04-03T13:08:14.905Z</time></trkpt><trkpt lat="43.7734733" lon="11.2471883"><ele>54.0</ele><time>2026-04-03T13:08:16.905Z</time></trkpt><trkpt lat="43.7735" lon="11.247065"><ele>54.0</ele><time>2026-04-03T13:08:19.905Z</time></trkpt><trkpt lat="43.7735533" lon="11.2469833"><ele>54.0</ele><time>2026-04-03T13:08:21.905Z</time></trkpt><trkpt lat="43.7735733" lon="11.2469"><ele>54.0</ele><time>2026-04-03T13:08:23.905Z</time></trkpt><trkpt lat="43.7736117" lon="11.2467783"><ele>54.0</ele><time>2026-04-03T13:08:26.906Z</time></trkpt><trkpt lat="43.77365" lon="11.2467"><ele>54.0</ele><time>2026-04-03T13:08:28.906Z</time></trkpt><trkpt lat="43.7736717" lon="11.24661"><ele>54.0</ele><time>2026-04-03T13:08:30.906Z</time></trkpt><trkpt lat="43.773705" lon="11.2465267"><ele>54.0</ele><time>2026-04-03T13:08:32.905Z</time></trkpt><trkpt lat="43.7737533" lon="11.24644"><ele>54.0</ele><time>2026-04-03T13:08:34.905Z</time></trkpt><trkpt lat="43.7738033" lon="11.2463633"><ele>53.5</ele><time>2026-04-03T13:08:36.905Z</time></trkpt><trkpt lat="43.7738517" lon="11.24629"><ele>53.0</ele><time>2026-04-03T13:08:38.906Z</time></trkpt><trkpt lat="43.7738933" lon="11.246215"><ele>52.5</ele><time>2026-04-03T13:08:40.905Z</time></trkpt><trkpt lat="43.7739317" lon="11.2460917"><ele>52.0</ele><time>2026-04-03T13:08:43.905Z</time></trkpt><trkpt lat="43.7739417" lon="11.2460017"><ele>51.5</ele><time>2026-04-03T13:08:45.905Z</time></trkpt><trkpt lat="43.7739783" lon="11.245885"><ele>51.0</ele><time>2026-04-03T13:08:48.905Z</time></trkpt><trkpt lat="43.7739917" lon="11.245775"><ele>51.0</ele><time>2026-04-03T13:08:50.905Z</time></trkpt><trkpt lat="43.7739983" lon="11.2456583"><ele>51.0</ele><time>2026-04-03T13:08:52.905Z</time></trkpt><trkpt lat="43.77403" lon="11.2455717"><ele>51.0</ele><time>2026-04-03T13:08:54.905Z</time></trkpt><trkpt lat="43.77408" lon="11.2454917"><ele>51.0</ele><time>2026-04-03T13:08:56.905Z</time></trkpt><trkpt lat="43.7741317" lon="11.2454317"><ele>51.0</ele><time>2026-04-03T13:08:58.905Z</time></trkpt><trkpt lat="43.774175" lon="11.2453567"><ele>51.0</ele><time>2026-04-03T13:09:00.905Z</time></trkpt><trkpt lat="43.7742317" lon="11.2452417"><ele>51.0</ele><time>2026-04-03T13:09:02.906Z</time></trkpt><trkpt lat="43.7742783" lon="11.2451583"><ele>51.0</ele><time>2026-04-03T13:09:04.906Z</time></trkpt><trkpt lat="43.7743233" lon="11.2450967"><ele>51.0</ele><time>2026-04-03T13:09:06.906Z</time></trkpt><trkpt lat="43.77437" lon="11.24501"><ele>51.0</ele><time>2026-04-03T13:09:09.905Z</time></trkpt><trkpt lat="43.774415" lon="11.2449317"><ele>51.0</ele><time>2026-04-03T13:09:11.905Z</time></trkpt><trkpt lat="43.7744633" lon="11.244855"><ele>51.0</ele><time>2026-04-03T13:09:14.905Z</time></trkpt><trkpt lat="43.7744933" lon="11.2447583"><ele>51.0</ele><time>2026-04-03T13:09:19.905Z</time></trkpt><trkpt lat="43.77454" lon="11.2446967"><ele>51.0</ele><time>2026-04-03T13:09:26.906Z</time></trkpt><trkpt lat="43.7745883" lon="11.244605"><ele>51.0</ele><time>2026-04-03T13:09:30.906Z</time></trkpt><trkpt lat="43.7746317" lon="11.2445317"><ele>51.0</ele><time>2026-04-03T13:09:33.906Z</time></trkpt><trkpt lat="43.7746817" lon="11.2444533"><ele>51.0</ele><time>2026-04-03T13:09:36.905Z</time></trkpt><trkpt lat="43.7747433" lon="11.2443733"><ele>51.0</ele><time>2026-04-03T13:09:39.906Z</time></trkpt><trkpt lat="43.7747883" lon="11.2443083"><ele>51.0</ele><time>2026-04-03T13:09:41.905Z</time></trkpt><trkpt lat="43.7748317" lon="11.2441967"><ele>51.0</ele><time>2026-04-03T13:09:44.906Z</time></trkpt><trkpt lat="43.7748833" lon="11.2441333"><ele>51.0</ele><time>2026-04-03T13:09:47.906Z</time></trkpt><trkpt lat="43.7749383" lon="11.2440467"><ele>51.0</ele><time>2026-04-03T13:09:51.906Z</time></trkpt><trkpt lat="43.7749883" lon="11.2439667"><ele>51.0</ele><time>2026-04-03T13:09:54.906Z</time></trkpt><trkpt lat="43.7750133" lon="11.2438467"><ele>51.0</ele><time>2026-04-03T13:09:56.906Z</time></trkpt><trkpt lat="43.7750133" lon="11.2437133"><ele>51.0</ele><time>2026-04-03T13:09:58.906Z</time></trkpt><trkpt lat="43.7750117" lon="11.2435967"><ele>51.0</ele><time>2026-04-03T13:10:00.905Z</time></trkpt><trkpt lat="43.77504" lon="11.2435117"><ele>51.0</ele><time>2026-04-03T13:10:02.905Z</time></trkpt><trkpt lat="43.77507" lon="11.2434217"><ele>51.0</ele><time>2026-04-03T13:10:06.905Z</time></trkpt><trkpt lat="43.775115" lon="11.2433267"><ele>51.0</ele><time>2026-04-03T13:10:10.905Z</time></trkpt><trkpt lat="43.775145" lon="11.243245"><ele>51.0</ele><time>2026-04-03T13:10:13.905Z</time></trkpt><trkpt lat="43.7751983" lon="11.24314"><ele>51.0</ele><time>2026-04-03T13:10:16.906Z</time></trkpt><trkpt lat="43.7752417" lon="11.2430517"><ele>50.833333333333336</ele><time>2026-04-03T13:10:19.905Z</time></trkpt><trkpt lat="43.7752833" lon="11.2429683"><ele>50.66666666666667</ele><time>2026-04-03T13:10:21.905Z</time></trkpt><trkpt lat="43.7753133" lon="11.242885"><ele>50.5</ele><time>2026-04-03T13:10:23.905Z</time></trkpt><trkpt lat="43.7753483" lon="11.2427883"><ele>50.333333333333336</ele><time>2026-04-03T13:10:25.906Z</time></trkpt><trkpt lat="43.7754367" lon="11.2427133"><ele>50.16666666666667</ele><time>2026-04-03T13:10:28.905Z</time></trkpt><trkpt lat="43.7754933" lon="11.2426533"><ele>50.0</ele><time>2026-04-03T13:10:32.905Z</time></trkpt><trkpt lat="43.77552" lon="11.24255"><ele>50.00000000000001</ele><time>2026-04-03T13:10:35.906Z</time></trkpt><trkpt lat="43.7755533" lon="11.24243"><ele>50.0</ele><time>2026-04-03T13:10:38.905Z</time></trkpt><trkpt lat="43.7755933" lon="11.2423583"><ele>50.0</ele><time>2026-04-03T13:10:40.905Z</time></trkpt><trkpt lat="43.7756333" lon="11.242285"><ele>50.0</ele><time>2026-04-03T13:10:42.905Z</time></trkpt><trkpt lat="43.7756783" lon="11.2422083"><ele>50.0</ele><time>2026-04-03T13:10:44.905Z</time></trkpt><trkpt lat="43.7757183" lon="11.2421317"><ele>50.00000000000001</ele><time>2026-04-03T13:10:46.906Z</time></trkpt><trkpt lat="43.7757717" lon="11.2420533"><ele>50.0</ele><time>2026-04-03T13:10:48.905Z</time></trkpt><trkpt lat="43.77582" lon="11.2419717"><ele>50.00000000000001</ele><time>2026-04-03T13:10:50.906Z</time></trkpt><trkpt lat="43.77589" lon="11.2418967"><ele>50.0</ele><time>2026-04-03T13:10:52.905Z</time></trkpt><trkpt lat="43.7759617" lon="11.241815"><ele>50.0</ele><time>2026-04-03T13:10:54.905Z</time></trkpt><trkpt lat="43.776025" lon="11.24173"><ele>50.0</ele><time>2026-04-03T13:10:56.905Z</time></trkpt><trkpt lat="43.776095" lon="11.2416567"><ele>50.00000000000001</ele><time>2026-04-03T13:10:58.906Z</time></trkpt><trkpt lat="43.776165" lon="11.2415967"><ele>50.0</ele><time>2026-04-03T13:11:00.905Z</time></trkpt><trkpt lat="43.7762333" lon="11.2415433"><ele>50.00000000000001</ele><time>2026-04-03T13:11:02.905Z</time></trkpt><trkpt lat="43.7763017" lon="11.2414933"><ele>50.0</ele><time>2026-04-03T13:11:04.905Z</time></trkpt><trkpt lat="43.77636" lon="11.2414383"><ele>50.0</ele><time>2026-04-03T13:11:06.905Z</time></trkpt><trkpt lat="43.7764033" lon="11.24136"><ele>50.0</ele><time>2026-04-03T13:11:10.905Z</time></trkpt><trkpt lat="43.7764767" lon="11.2413117"><ele>50.0</ele><time>2026-04-03T13:11:15.904Z</time></trkpt><trkpt lat="43.77653" lon="11.2412617"><ele>50.00000000000001</ele><time>2026-04-03T13:11:18.905Z</time></trkpt><trkpt lat="43.7766017" lon="11.241205"><ele>50.0</ele><time>2026-04-03T13:11:21.905Z</time></trkpt><trkpt lat="43.7766583" lon="11.2411633"><ele>50.00000000000001</ele><time>2026-04-03T13:11:23.905Z</time></trkpt><trkpt lat="43.7767383" lon="11.2411117"><ele>50.0</ele><time>2026-04-03T13:11:26.905Z</time></trkpt><trkpt lat="43.7767883" lon="11.2410583"><ele>50.0</ele><time>2026-04-03T13:11:28.904Z</time></trkpt><trkpt lat="43.77683" lon="11.2409833"><ele>50.0</ele><time>2026-04-03T13:11:30.904Z</time></trkpt><trkpt lat="43.776865" lon="11.24091"><ele>50.0</ele><time>2026-04-03T13:11:32.904Z</time></trkpt><trkpt lat="43.7768833" lon="11.240795"><ele>50.00000000000001</ele><time>2026-04-03T13:11:35.904Z</time></trkpt><trkpt lat="43.7768917" lon="11.2406967"><ele>50.0</ele><time>2026-04-03T13:11:39.905Z</time></trkpt><trkpt lat="43.77685" lon="11.240625"><ele>50.16666666666667</ele><time>2026-04-03T13:11:44.904Z</time></trkpt><trkpt lat="43.7767767" lon="11.240575"><ele>50.333333333333336</ele><time>2026-04-03T13:11:47.904Z</time></trkpt><trkpt lat="43.7767233" lon="11.240465"><ele>50.5</ele><time>2026-04-03T13:11:50.904Z</time></trkpt><trkpt lat="43.7766967" lon="11.2403767"><ele>50.66666666666667</ele><time>2026-04-03T13:11:52.904Z</time></trkpt><trkpt lat="43.7766283" lon="11.2402783"><ele>50.833333333333336</ele><time>2026-04-03T13:11:55.905Z</time></trkpt><trkpt lat="43.7765517" lon="11.2402033"><ele>51.0</ele><time>2026-04-03T13:11:58.905Z</time></trkpt><trkpt lat="43.7764833" lon="11.2401467"><ele>51.0</ele><time>2026-04-03T13:12:00.904Z</time></trkpt><trkpt lat="43.7764133" lon="11.2400983"><ele>51.0</ele><time>2026-04-03T13:12:02.904Z</time></trkpt><trkpt lat="43.7763383" lon="11.2400533"><ele>51.0</ele><time>2026-04-03T13:12:04.905Z</time></trkpt><trkpt lat="43.77631" lon="11.2399717"><ele>51.0</ele><time>2026-04-03T13:12:06.905Z</time></trkpt><trkpt lat="43.7762633" lon="11.2399033"><ele>51.0</ele><time>2026-04-03T13:12:08.904Z</time></trkpt><trkpt lat="43.7761867" lon="11.2398633"><ele>51.0</ele><time>2026-04-03T13:12:10.904Z</time></trkpt><trkpt lat="43.7761233" lon="11.2397967"><ele>51.166666666666664</ele><time>2026-04-03T13:12:12.904Z</time></trkpt><trkpt lat="43.77605" lon="11.2397367"><ele>51.33333333333333</ele><time>2026-04-03T13:12:14.905Z</time></trkpt><trkpt lat="43.7759883" lon="11.2396833"><ele>51.5</ele><time>2026-04-03T13:12:16.905Z</time></trkpt><trkpt lat="43.7759267" lon="11.2396067"><ele>51.666666666666664</ele><time>2026-04-03T13:12:19.904Z</time></trkpt><trkpt lat="43.775865" lon="11.239515"><ele>51.83333333333333</ele><time>2026-04-03T13:12:22.904Z</time></trkpt><trkpt lat="43.775815" lon="11.2394283"><ele>52.0</ele><time>2026-04-03T13:12:25.904Z</time></trkpt><trkpt lat="43.7758067" lon="11.23934"><ele>52.166666666666664</ele><time>2026-04-03T13:12:29.904Z</time></trkpt><trkpt lat="43.7758183" lon="11.23925"><ele>52.33333333333333</ele><time>2026-04-03T13:12:32.904Z</time></trkpt><trkpt lat="43.7758483" lon="11.2391383"><ele>52.5</ele><time>2026-04-03T13:12:35.904Z</time></trkpt><trkpt lat="43.7758667" lon="11.23905"><ele>52.66666666666667</ele><time>2026-04-03T13:12:37.904Z</time></trkpt><trkpt lat="43.7758917" lon="11.2389667"><ele>52.833333333333336</ele><time>2026-04-03T13:12:39.905Z</time></trkpt><trkpt lat="43.775945" lon="11.2388567"><ele>53.0</ele><time>2026-04-03T13:12:42.904Z</time></trkpt><trkpt lat="43.7759883" lon="11.2387783"><ele>52.66666666666667</ele><time>2026-04-03T13:12:44.904Z</time></trkpt><trkpt lat="43.7760367" lon="11.2386967"><ele>52.333333333333336</ele><time>2026-04-03T13:12:46.904Z</time></trkpt><trkpt lat="43.7760867" lon="11.2386133"><ele>52.0</ele><time>2026-04-03T13:12:48.905Z</time></trkpt><trkpt lat="43.7761383" lon="11.23854"><ele>51.66666666666667</ele><time>2026-04-03T13:12:50.905Z</time></trkpt><trkpt lat="43.77618" lon="11.2384467"><ele>51.333333333333336</ele><time>2026-04-03T13:12:52.904Z</time></trkpt><trkpt lat="43.7762117" lon="11.238355"><ele>51.0</ele><time>2026-04-03T13:12:54.904Z</time></trkpt><trkpt lat="43.7762417" lon="11.238245"><ele>51.0</ele><time>2026-04-03T13:12:57.905Z</time></trkpt><trkpt lat="43.776275" lon="11.2381517"><ele>51.0</ele><time>2026-04-03T13:12:59.904Z</time></trkpt><trkpt lat="43.7763133" lon="11.2380633"><ele>51.0</ele><time>2026-04-03T13:13:01.904Z</time></trkpt><trkpt lat="43.7763667" lon="11.2379933"><ele>51.0</ele><time>2026-04-03T13:13:03.904Z</time></trkpt><trkpt lat="43.77643" lon="11.2379117"><ele>51.0</ele><time>2026-04-03T13:13:06.904Z</time></trkpt><trkpt lat="43.7764967" lon="11.23785"><ele>51.0</ele><time>2026-04-03T13:13:09.904Z</time></trkpt><trkpt lat="43.7765017" lon="11.237755"><ele>50.333333333333336</ele><time>2026-04-03T13:13:15.904Z</time></trkpt><trkpt lat="43.7764783" lon="11.23763"><ele>49.666666666666664</ele><time>2026-04-03T13:13:18.905Z</time></trkpt><trkpt lat="43.7764467" lon="11.2375383"><ele>49.0</ele><time>2026-04-03T13:13:20.904Z</time></trkpt><trkpt lat="43.77641" lon="11.2374533"><ele>48.33333333333333</ele><time>2026-04-03T13:13:22.904Z</time></trkpt><trkpt lat="43.7763517" lon="11.2373883"><ele>47.666666666666664</ele><time>2026-04-03T13:13:24.904Z</time></trkpt><trkpt lat="43.7762883" lon="11.2373283"><ele>47.0</ele><time>2026-04-03T13:13:26.904Z</time></trkpt><trkpt lat="43.77623" lon="11.2372667"><ele>47.0</ele><time>2026-04-03T13:13:28.904Z</time></trkpt><trkpt lat="43.776165" lon="11.23721"><ele>47.0</ele><time>2026-04-03T13:13:30.905Z</time></trkpt><trkpt lat="43.7760967" lon="11.2371633"><ele>47.0</ele><time>2026-04-03T13:13:32.905Z</time></trkpt><trkpt lat="43.7760333" lon="11.23711"><ele>47.0</ele><time>2026-04-03T13:13:34.904Z</time></trkpt><trkpt lat="43.7759583" lon="11.23706"><ele>47.0</ele><time>2026-04-03T13:13:36.904Z</time></trkpt><trkpt lat="43.7759017" lon="11.2370017"><ele>47.0</ele><time>2026-04-03T13:13:38.904Z</time></trkpt><trkpt lat="43.7758467" lon="11.2369183"><ele>47.0</ele><time>2026-04-03T13:13:41.905Z</time></trkpt><trkpt lat="43.7758" lon="11.23685"><ele>47.0</ele><time>2026-04-03T13:13:44.904Z</time></trkpt><trkpt lat="43.775795" lon="11.23676"><ele>47.0</ele><time>2026-04-03T13:13:49.904Z</time></trkpt><trkpt lat="43.7758183" lon="11.23667"><ele>47.0</ele><time>2026-04-03T13:13:51.904Z</time></trkpt><trkpt lat="43.7758383" lon="11.2365833"><ele>47.0</ele><time>2026-04-03T13:13:53.905Z</time></trkpt><trkpt lat="43.7758633" lon="11.2364633"><ele>47.0</ele><time>2026-04-03T13:13:56.904Z</time></trkpt><trkpt lat="43.775895" lon="11.236355"><ele>47.0</ele><time>2026-04-03T13:13:59.904Z</time></trkpt><trkpt lat="43.775925" lon="11.2362783"><ele>46.857142857142854</ele><time>2026-04-03T13:14:01.904Z</time></trkpt><trkpt lat="43.775955" lon="11.2362"><ele>46.71428571428571</ele><time>2026-04-03T13:14:03.904Z</time></trkpt><trkpt lat="43.7760017" lon="11.2360983"><ele>46.57142857142857</ele><time>2026-04-03T13:14:06.905Z</time></trkpt><trkpt lat="43.7760433" lon="11.2360267"><ele>46.42857142857143</ele><time>2026-04-03T13:14:08.905Z</time></trkpt><trkpt lat="43.7760883" lon="11.2359383"><ele>46.285714285714285</ele><time>2026-04-03T13:14:10.904Z</time></trkpt><trkpt lat="43.7761233" lon="11.2358583"><ele>46.142857142857146</ele><time>2026-04-03T13:14:12.904Z</time></trkpt><trkpt lat="43.776125" lon="11.2357417"><ele>46.0</ele><time>2026-04-03T13:14:14.905Z</time></trkpt><trkpt lat="43.7761033" lon="11.2356217"><ele>45.714285714285715</ele><time>2026-04-03T13:14:16.904Z</time></trkpt><trkpt lat="43.77607" lon="11.235495"><ele>45.42857142857142</ele><time>2026-04-03T13:14:19.904Z</time></trkpt><trkpt lat="43.776075" lon="11.2353967"><ele>45.14285714285714</ele><time>2026-04-03T13:14:21.904Z</time></trkpt><trkpt lat="43.7760917" lon="11.2353117"><ele>44.85714285714286</ele><time>2026-04-03T13:14:23.904Z</time></trkpt><trkpt lat="43.7760833" lon="11.2352233"><ele>44.57142857142857</ele><time>2026-04-03T13:14:25.904Z</time></trkpt><trkpt lat="43.7760717" lon="11.2351233"><ele>44.285714285714285</ele><time>2026-04-03T13:14:27.905Z</time></trkpt><trkpt lat="43.776055" lon="11.23502"><ele>44.0</ele><time>2026-04-03T13:14:29.904Z</time></trkpt><trkpt lat="43.77603" lon="11.2349333"><ele>44.0</ele><time>2026-04-03T13:14:31.904Z</time></trkpt><trkpt lat="43.7759933" lon="11.2348617"><ele>44.0</ele><time>2026-04-03T13:14:33.905Z</time></trkpt><trkpt lat="43.7759583" lon="11.2347783"><ele>44.0</ele><time>2026-04-03T13:14:35.905Z</time></trkpt><trkpt lat="43.7759283" lon="11.2346733"><ele>44.0</ele><time>2026-04-03T13:14:37.904Z</time></trkpt><trkpt lat="43.7759" lon="11.234575"><ele>44.0</ele><time>2026-04-03T13:14:39.905Z</time></trkpt><trkpt lat="43.7758733" lon="11.2344683"><ele>44.0</ele><time>2026-04-03T13:14:41.904Z</time></trkpt><trkpt lat="43.7758533" lon="11.234375"><ele>44.0</ele><time>2026-04-03T13:14:43.904Z</time></trkpt><trkpt lat="43.7758533" lon="11.2342683"><ele>44.0</ele><time>2026-04-03T13:14:45.904Z</time></trkpt><trkpt lat="43.7758583" lon="11.234165"><ele>44.0</ele><time>2026-04-03T13:14:47.905Z</time></trkpt><trkpt lat="43.7758617" lon="11.2340433"><ele>44.0</ele><time>2026-04-03T13:14:49.904Z</time></trkpt><trkpt lat="43.77589" lon="11.2339033"><ele>44.0</ele><time>2026-04-03T13:14:51.905Z</time></trkpt><trkpt lat="43.775915" lon="11.2337867"><ele>44.0</ele><time>2026-04-03T13:14:53.904Z</time></trkpt><trkpt lat="43.775945" lon="11.2336817"><ele>44.0</ele><time>2026-04-03T13:14:55.905Z</time></trkpt><trkpt lat="43.7759833" lon="11.2335783"><ele>43.800000000000004</ele><time>2026-04-03T13:14:57.904Z</time></trkpt><trkpt lat="43.776015" lon="11.2334717"><ele>43.6</ele><time>2026-04-03T13:14:59.904Z</time></trkpt><trkpt lat="43.77604" lon="11.2333517"><ele>43.4</ele><time>2026-04-03T13:15:01.904Z</time></trkpt><trkpt lat="43.776075" lon="11.233225"><ele>43.2</ele><time>2026-04-03T13:15:03.904Z</time></trkpt><trkpt lat="43.77611" lon="11.2330983"><ele>43.0</ele><time>2026-04-03T13:15:05.904Z</time></trkpt><trkpt lat="43.776145" lon="11.2329733"><ele>44.16666666666667</ele><time>2026-04-03T13:15:07.905Z</time></trkpt><trkpt lat="43.7761783" lon="11.2328533"><ele>45.333333333333336</ele><time>2026-04-03T13:15:09.904Z</time></trkpt><trkpt lat="43.7762067" lon="11.23274"><ele>46.5</ele><time>2026-04-03T13:15:11.905Z</time></trkpt><trkpt lat="43.77624" lon="11.2326333"><ele>47.66666666666667</ele><time>2026-04-03T13:15:13.904Z</time></trkpt><trkpt lat="43.7762683" lon="11.2325333"><ele>48.833333333333336</ele><time>2026-04-03T13:15:15.905Z</time></trkpt><trkpt lat="43.7763" lon="11.232425"><ele>50.0</ele><time>2026-04-03T13:15:17.904Z</time></trkpt><trkpt lat="43.7763283" lon="11.2323133"><ele>49.6</ele><time>2026-04-03T13:15:19.903Z</time></trkpt><trkpt lat="43.77637" lon="11.2322"><ele>49.2</ele><time>2026-04-03T13:15:21.903Z</time></trkpt><trkpt lat="43.776405" lon="11.2320767"><ele>48.8</ele><time>2026-04-03T13:15:23.903Z</time></trkpt><trkpt lat="43.776435" lon="11.231945"><ele>48.4</ele><time>2026-04-03T13:15:25.903Z</time></trkpt><trkpt lat="43.7764667" lon="11.2318217"><ele>48.0</ele><time>2026-04-03T13:15:27.904Z</time></trkpt><trkpt lat="43.7764933" lon="11.2317033"><ele>48.0</ele><time>2026-04-03T13:15:29.903Z</time></trkpt><trkpt lat="43.7765317" lon="11.2315733"><ele>48.0</ele><time>2026-04-03T13:15:31.903Z</time></trkpt><trkpt lat="43.7765667" lon="11.2314417"><ele>48.0</ele><time>2026-04-03T13:15:33.903Z</time></trkpt><trkpt lat="43.7766017" lon="11.2313067"><ele>48.0</ele><time>2026-04-03T13:15:35.904Z</time></trkpt><trkpt lat="43.77664" lon="11.231175"><ele>48.0</ele><time>2026-04-03T13:15:37.903Z</time></trkpt><trkpt lat="43.776675" lon="11.2310467"><ele>48.0</ele><time>2026-04-03T13:15:39.904Z</time></trkpt><trkpt lat="43.776715" lon="11.2309167"><ele>48.0</ele><time>2026-04-03T13:15:41.903Z</time></trkpt><trkpt lat="43.7767567" lon="11.23079"><ele>48.0</ele><time>2026-04-03T13:15:43.903Z</time></trkpt><trkpt lat="43.77679" lon="11.230655"><ele>48.0</ele><time>2026-04-03T13:15:45.903Z</time></trkpt><trkpt lat="43.77683" lon="11.2305267"><ele>48.0</ele><time>2026-04-03T13:15:47.903Z</time></trkpt><trkpt lat="43.7768583" lon="11.23041"><ele>48.0</ele><time>2026-04-03T13:15:49.903Z</time></trkpt><trkpt lat="43.7768867" lon="11.2303033"><ele>48.0</ele><time>2026-04-03T13:15:51.903Z</time></trkpt><trkpt lat="43.7769017" lon="11.2301983"><ele>48.0</ele><time>2026-04-03T13:15:53.903Z</time></trkpt><trkpt lat="43.7769133" lon="11.2301033"><ele>48.0</ele><time>2026-04-03T13:15:55.903Z</time></trkpt><trkpt lat="43.7769167" lon="11.2299733"><ele>48.0</ele><time>2026-04-03T13:15:58.903Z</time></trkpt><trkpt lat="43.7768883" lon="11.229865"><ele>48.0</ele><time>2026-04-03T13:16:01.903Z</time></trkpt><trkpt lat="43.7768383" lon="11.2297733"><ele>47.0</ele><time>2026-04-03T13:16:04.904Z</time></trkpt><trkpt lat="43.7767817" lon="11.2296967"><ele>46.0</ele><time>2026-04-03T13:16:07.903Z</time></trkpt><trkpt lat="43.7767267" lon="11.22965"><ele>45.0</ele><time>2026-04-03T13:16:10.904Z</time></trkpt><trkpt lat="43.7766583" lon="11.2296083"><ele>44.0</ele><time>2026-04-03T13:16:13.904Z</time></trkpt><trkpt lat="43.7765833" lon="11.2295483"><ele>43.0</ele><time>2026-04-03T13:16:16.903Z</time></trkpt><trkpt lat="43.7765117" lon="11.2294983"><ele>42.0</ele><time>2026-04-03T13:16:19.904Z</time></trkpt><trkpt lat="43.7764533" lon="11.2294533"><ele>42.0</ele><time>2026-04-03T13:16:21.904Z</time></trkpt><trkpt lat="43.77638" lon="11.2293867"><ele>42.0</ele><time>2026-04-03T13:16:24.903Z</time></trkpt><trkpt lat="43.776295" lon="11.2293267"><ele>42.0</ele><time>2026-04-03T13:16:27.903Z</time></trkpt><trkpt lat="43.7762333" lon="11.229275"><ele>42.0</ele><time>2026-04-03T13:16:29.903Z</time></trkpt><trkpt lat="43.77617" lon="11.2292267"><ele>42.0</ele><time>2026-04-03T13:16:31.904Z</time></trkpt><trkpt lat="43.7761017" lon="11.22917"><ele>42.0</ele><time>2026-04-03T13:16:33.903Z</time></trkpt><trkpt lat="43.77602" lon="11.229105"><ele>42.0</ele><time>2026-04-03T13:16:35.903Z</time></trkpt><trkpt lat="43.7759167" lon="11.2290133"><ele>42.0</ele><time>2026-04-03T13:16:37.903Z</time></trkpt><trkpt lat="43.7758733" lon="11.2288933"><ele>42.0</ele><time>2026-04-03T13:16:39.903Z</time></trkpt><trkpt lat="43.7758967" lon="11.22875"><ele>42.0</ele><time>2026-04-03T13:16:41.904Z</time></trkpt><trkpt lat="43.775925" lon="11.22867"><ele>42.0</ele><time>2026-04-03T13:16:42.903Z</time></trkpt><trkpt lat="43.7759517" lon="11.22859"><ele>42.166666666666664</ele><time>2026-04-03T13:16:43.903Z</time></trkpt><trkpt lat="43.7759783" lon="11.2285083"><ele>42.333333333333336</ele><time>2026-04-03T13:16:44.903Z</time></trkpt><trkpt lat="43.776" lon="11.228425"><ele>42.5</ele><time>2026-04-03T13:16:45.903Z</time></trkpt><trkpt lat="43.776025" lon="11.228335"><ele>42.66666666666667</ele><time>2026-04-03T13:16:46.903Z</time></trkpt><trkpt lat="43.7760833" lon="11.2281917"><ele>42.833333333333336</ele><time>2026-04-03T13:16:48.903Z</time></trkpt><trkpt lat="43.776135" lon="11.2280483"><ele>43.0</ele><time>2026-04-03T13:16:50.904Z</time></trkpt><trkpt lat="43.7761817" lon="11.2279083"><ele>43.0</ele><time>2026-04-03T13:16:52.903Z</time></trkpt><trkpt lat="43.77622" lon="11.2277733"><ele>43.0</ele><time>2026-04-03T13:16:54.904Z</time></trkpt><trkpt lat="43.7762583" lon="11.2276567"><ele>43.0</ele><time>2026-04-03T13:16:56.903Z</time></trkpt><trkpt lat="43.7762967" lon="11.2275483"><ele>43.0</ele><time>2026-04-03T13:16:58.903Z</time></trkpt><trkpt lat="43.776335" lon="11.227455"><ele>43.0</ele><time>2026-04-03T13:17:00.903Z</time></trkpt><trkpt lat="43.776365" lon="11.2273733"><ele>43.0</ele><time>2026-04-03T13:17:02.903Z</time></trkpt><trkpt lat="43.7763867" lon="11.2272883"><ele>42.833333333333336</ele><time>2026-04-03T13:17:04.904Z</time></trkpt><trkpt lat="43.77641" lon="11.2271917"><ele>42.66666666666667</ele><time>2026-04-03T13:17:06.903Z</time></trkpt><trkpt lat="43.776435" lon="11.2270867"><ele>42.5</ele><time>2026-04-03T13:17:08.903Z</time></trkpt><trkpt lat="43.7764683" lon="11.2269833"><ele>42.333333333333336</ele><time>2026-04-03T13:17:10.904Z</time></trkpt><trkpt lat="43.77651" lon="11.226885"><ele>42.166666666666664</ele><time>2026-04-03T13:17:12.904Z</time></trkpt><trkpt lat="43.7765483" lon="11.226785"><ele>42.0</ele><time>2026-04-03T13:17:14.904Z</time></trkpt><trkpt lat="43.776585" lon="11.2266817"><ele>42.0</ele><time>2026-04-03T13:17:16.904Z</time></trkpt><trkpt lat="43.7766183" lon="11.226575"><ele>42.0</ele><time>2026-04-03T13:17:18.903Z</time></trkpt><trkpt lat="43.77665" lon="11.2264667"><ele>42.0</ele><time>2026-04-03T13:17:20.903Z</time></trkpt><trkpt lat="43.77668" lon="11.2263533"><ele>42.0</ele><time>2026-04-03T13:17:22.904Z</time></trkpt><trkpt lat="43.7767117" lon="11.2262383"><ele>42.0</ele><time>2026-04-03T13:17:24.903Z</time></trkpt><trkpt lat="43.7767467" lon="11.22612"><ele>42.0</ele><time>2026-04-03T13:17:26.903Z</time></trkpt><trkpt lat="43.7767883" lon="11.225995"><ele>42.0</ele><time>2026-04-03T13:17:28.903Z</time></trkpt><trkpt lat="43.7768267" lon="11.2258683"><ele>42.0</ele><time>2026-04-03T13:17:30.903Z</time></trkpt><trkpt lat="43.7768667" lon="11.2257733"><ele>42.0</ele><time>2026-04-03T13:17:32.904Z</time></trkpt><trkpt lat="43.776895" lon="11.225685"><ele>42.0</ele><time>2026-04-03T13:17:34.903Z</time></trkpt><trkpt lat="43.7769283" lon="11.225595"><ele>42.0</ele><time>2026-04-03T13:17:36.903Z</time></trkpt><trkpt lat="43.7769633" lon="11.225495"><ele>42.0</ele><time>2026-04-03T13:17:38.904Z</time></trkpt><trkpt lat="43.776995" lon="11.225385"><ele>42.0</ele><time>2026-04-03T13:17:40.903Z</time></trkpt><trkpt lat="43.7770317" lon="11.2252783"><ele>42.0</ele><time>2026-04-03T13:17:42.903Z</time></trkpt><trkpt lat="43.777065" lon="11.225175"><ele>42.0</ele><time>2026-04-03T13:17:44.903Z</time></trkpt><trkpt lat="43.7770883" lon="11.2250567"><ele>42.0</ele><time>2026-04-03T13:17:46.903Z</time></trkpt><trkpt lat="43.77712" lon="11.22494"><ele>42.0</ele><time>2026-04-03T13:17:48.903Z</time></trkpt><trkpt lat="43.777155" lon="11.2248167"><ele>42.0</ele><time>2026-04-03T13:17:50.903Z</time></trkpt><trkpt lat="43.7771933" lon="11.2247017"><ele>41.57142857142857</ele><time>2026-04-03T13:17:52.903Z</time></trkpt><trkpt lat="43.7772267" lon="11.2245967"><ele>41.14285714285714</ele><time>2026-04-03T13:17:54.903Z</time></trkpt><trkpt lat="43.7772517" lon="11.2245017"><ele>40.714285714285715</ele><time>2026-04-03T13:17:56.903Z</time></trkpt><trkpt lat="43.7772683" lon="11.2243867"><ele>40.285714285714285</ele><time>2026-04-03T13:17:59.903Z</time></trkpt><trkpt lat="43.7772867" lon="11.2243017"><ele>39.857142857142854</ele><time>2026-04-03T13:18:01.903Z</time></trkpt><trkpt lat="43.7773133" lon="11.2242217"><ele>39.42857142857143</ele><time>2026-04-03T13:18:03.904Z</time></trkpt><trkpt lat="43.7773433" lon="11.2241267"><ele>39.0</ele><time>2026-04-03T13:18:05.903Z</time></trkpt><trkpt lat="43.7773783" lon="11.2240417"><ele>39.666666666666664</ele><time>2026-04-03T13:18:07.903Z</time></trkpt><trkpt lat="43.777385" lon="11.2239217"><ele>40.333333333333336</ele><time>2026-04-03T13:18:10.904Z</time></trkpt><trkpt lat="43.7773917" lon="11.223825"><ele>41.0</ele><time>2026-04-03T13:18:12.903Z</time></trkpt><trkpt lat="43.77742" lon="11.2237267"><ele>41.66666666666667</ele><time>2026-04-03T13:18:14.903Z</time></trkpt><trkpt lat="43.7774483" lon="11.2236267"><ele>42.333333333333336</ele><time>2026-04-03T13:18:16.903Z</time></trkpt><trkpt lat="43.7774783" lon="11.223525"><ele>43.0</ele><time>2026-04-03T13:18:18.904Z</time></trkpt><trkpt lat="43.777515" lon="11.2234167"><ele>43.0</ele><time>2026-04-03T13:18:20.903Z</time></trkpt><trkpt lat="43.7775517" lon="11.2233033"><ele>43.0</ele><time>2026-04-03T13:18:22.903Z</time></trkpt><trkpt lat="43.7775917" lon="11.223185"><ele>43.0</ele><time>2026-04-03T13:18:24.903Z</time></trkpt><trkpt lat="43.77763" lon="11.2230683"><ele>43.0</ele><time>2026-04-03T13:18:26.903Z</time></trkpt><trkpt lat="43.7776617" lon="11.222955"><ele>43.0</ele><time>2026-04-03T13:18:28.903Z</time></trkpt><trkpt lat="43.7777" lon="11.2228567"><ele>43.0</ele><time>2026-04-03T13:18:30.904Z</time></trkpt><trkpt lat="43.7777433" lon="11.2227583"><ele>43.599999999999994</ele><time>2026-04-03T13:18:32.903Z</time></trkpt><trkpt lat="43.777785" lon="11.22264"><ele>44.199999999999996</ele><time>2026-04-03T13:18:34.903Z</time></trkpt><trkpt lat="43.7778283" lon="11.22254"><ele>44.8</ele><time>2026-04-03T13:18:36.903Z</time></trkpt><trkpt lat="43.7778683" lon="11.222435"><ele>45.4</ele><time>2026-04-03T13:18:38.904Z</time></trkpt><trkpt lat="43.7779117" lon="11.2223267"><ele>46.0</ele><time>2026-04-03T13:18:40.904Z</time></trkpt><trkpt lat="43.7779617" lon="11.2222"><ele>46.0</ele><time>2026-04-03T13:18:42.904Z</time></trkpt><trkpt lat="43.778005" lon="11.2220683"><ele>46.0</ele><time>2026-04-03T13:18:44.903Z</time></trkpt><trkpt lat="43.7780283" lon="11.2219483"><ele>46.0</ele><time>2026-04-03T13:18:46.904Z</time></trkpt><trkpt lat="43.77803" lon="11.221845"><ele>46.0</ele><time>2026-04-03T13:18:48.903Z</time></trkpt><trkpt lat="43.778045" lon="11.221725"><ele>46.0</ele><time>2026-04-03T13:18:50.903Z</time></trkpt><trkpt lat="43.77808" lon="11.2216183"><ele>46.0</ele><time>2026-04-03T13:18:52.903Z</time></trkpt><trkpt lat="43.7781117" lon="11.2215283"><ele>46.0</ele><time>2026-04-03T13:18:54.903Z</time></trkpt><trkpt lat="43.7781367" lon="11.2214333"><ele>46.0</ele><time>2026-04-03T13:18:56.903Z</time></trkpt><trkpt lat="43.778175" lon="11.2213383"><ele>46.0</ele><time>2026-04-03T13:18:58.903Z</time></trkpt><trkpt lat="43.7782217" lon="11.2212383"><ele>46.0</ele><time>2026-04-03T13:19:00.903Z</time></trkpt><trkpt lat="43.7782633" lon="11.2211383"><ele>46.0</ele><time>2026-04-03T13:19:02.903Z</time></trkpt><trkpt lat="43.778305" lon="11.221035"><ele>46.0</ele><time>2026-04-03T13:19:04.904Z</time></trkpt><trkpt lat="43.7783417" lon="11.22092"><ele>46.0</ele><time>2026-04-03T13:19:06.902Z</time></trkpt><trkpt lat="43.7783833" lon="11.2208"><ele>46.0</ele><time>2026-04-03T13:19:08.902Z</time></trkpt><trkpt lat="43.7784317" lon="11.2206783"><ele>46.0</ele><time>2026-04-03T13:19:10.902Z</time></trkpt><trkpt lat="43.7784783" lon="11.22056"><ele>46.0</ele><time>2026-04-03T13:19:12.902Z</time></trkpt><trkpt lat="43.7785183" lon="11.220435"><ele>46.0</ele><time>2026-04-03T13:19:14.902Z</time></trkpt><trkpt lat="43.7785617" lon="11.22032"><ele>45.199999999999996</ele><time>2026-04-03T13:19:16.902Z</time></trkpt><trkpt lat="43.7786083" lon="11.2202017"><ele>44.4</ele><time>2026-04-03T13:19:18.902Z</time></trkpt><trkpt lat="43.7786567" lon="11.2200633"><ele>43.6</ele><time>2026-04-03T13:19:20.903Z</time></trkpt><trkpt lat="43.7787133" lon="11.2199233"><ele>42.8</ele><time>2026-04-03T13:19:22.903Z</time></trkpt><trkpt lat="43.7787683" lon="11.21978"><ele>42.0</ele><time>2026-04-03T13:19:24.902Z</time></trkpt><trkpt lat="43.7788217" lon="11.219635"><ele>42.0</ele><time>2026-04-03T13:19:26.902Z</time></trkpt><trkpt lat="43.7788733" lon="11.2194867"><ele>42.0</ele><time>2026-04-03T13:19:28.902Z</time></trkpt><trkpt lat="43.7789183" lon="11.2193517"><ele>42.0</ele><time>2026-04-03T13:19:30.902Z</time></trkpt><trkpt lat="43.7789617" lon="11.2192233"><ele>42.0</ele><time>2026-04-03T13:19:32.903Z</time></trkpt><trkpt lat="43.77901" lon="11.2190817"><ele>42.0</ele><time>2026-04-03T13:19:34.902Z</time></trkpt><trkpt lat="43.77906" lon="11.2189533"><ele>42.0</ele><time>2026-04-03T13:19:36.902Z</time></trkpt><trkpt lat="43.7791133" lon="11.218835"><ele>42.0</ele><time>2026-04-03T13:19:38.902Z</time></trkpt><trkpt lat="43.779175" lon="11.2187167"><ele>42.0</ele><time>2026-04-03T13:19:40.902Z</time></trkpt><trkpt lat="43.7792633" lon="11.2186467"><ele>42.0</ele><time>2026-04-03T13:19:42.903Z</time></trkpt><trkpt lat="43.7793133" lon="11.21855"><ele>42.0</ele><time>2026-04-03T13:19:44.903Z</time></trkpt><trkpt lat="43.7793517" lon="11.2184333"><ele>42.2</ele><time>2026-04-03T13:19:46.902Z</time></trkpt><trkpt lat="43.7794083" lon="11.2183233"><ele>42.400000000000006</ele><time>2026-04-03T13:19:48.903Z</time></trkpt><trkpt lat="43.77946" lon="11.2182067"><ele>42.599999999999994</ele><time>2026-04-03T13:19:50.902Z</time></trkpt><trkpt lat="43.7794783" lon="11.2180817"><ele>42.8</ele><time>2026-04-03T13:19:52.902Z</time></trkpt><trkpt lat="43.7794967" lon="11.2179533"><ele>43.0</ele><time>2026-04-03T13:19:54.902Z</time></trkpt><trkpt lat="43.7795517" lon="11.2178567"><ele>42.66666666666667</ele><time>2026-04-03T13:19:56.902Z</time></trkpt><trkpt lat="43.7796167" lon="11.217775"><ele>42.333333333333336</ele><time>2026-04-03T13:19:58.902Z</time></trkpt><trkpt lat="43.7796717" lon="11.2177017"><ele>42.0</ele><time>2026-04-03T13:20:00.902Z</time></trkpt><trkpt lat="43.77972" lon="11.2176217"><ele>41.666666666666664</ele><time>2026-04-03T13:20:02.903Z</time></trkpt><trkpt lat="43.7797583" lon="11.2175217"><ele>41.33333333333333</ele><time>2026-04-03T13:20:04.902Z</time></trkpt><trkpt lat="43.7797983" lon="11.2174167"><ele>41.0</ele><time>2026-04-03T13:20:06.903Z</time></trkpt><trkpt lat="43.77983" lon="11.2173"><ele>41.0</ele><time>2026-04-03T13:20:08.902Z</time></trkpt><trkpt lat="43.7798117" lon="11.2172067"><ele>41.0</ele><time>2026-04-03T13:20:10.902Z</time></trkpt><trkpt lat="43.7797983" lon="11.2171183"><ele>41.0</ele><time>2026-04-03T13:20:12.902Z</time></trkpt><trkpt lat="43.77982" lon="11.2170267"><ele>41.0</ele><time>2026-04-03T13:20:14.902Z</time></trkpt><trkpt lat="43.779855" lon="11.21692"><ele>41.0</ele><time>2026-04-03T13:20:16.902Z</time></trkpt><trkpt lat="43.77989" lon="11.2168067"><ele>41.0</ele><time>2026-04-03T13:20:18.902Z</time></trkpt><trkpt lat="43.77993" lon="11.2167"><ele>41.0</ele><time>2026-04-03T13:20:20.903Z</time></trkpt><trkpt lat="43.7799733" lon="11.216595"><ele>41.0</ele><time>2026-04-03T13:20:22.902Z</time></trkpt><trkpt lat="43.78001" lon="11.216485"><ele>41.0</ele><time>2026-04-03T13:20:24.902Z</time></trkpt><trkpt lat="43.78005" lon="11.2163833"><ele>41.0</ele><time>2026-04-03T13:20:26.902Z</time></trkpt><trkpt lat="43.7800917" lon="11.2162833"><ele>41.0</ele><time>2026-04-03T13:20:28.902Z</time></trkpt><trkpt lat="43.7801283" lon="11.2161867"><ele>41.0</ele><time>2026-04-03T13:20:30.902Z</time></trkpt><trkpt lat="43.78017" lon="11.21608"><ele>40.666666666666664</ele><time>2026-04-03T13:20:32.903Z</time></trkpt><trkpt lat="43.7802133" lon="11.215975"><ele>40.33333333333333</ele><time>2026-04-03T13:20:34.902Z</time></trkpt><trkpt lat="43.7802567" lon="11.2158717"><ele>40.0</ele><time>2026-04-03T13:20:36.902Z</time></trkpt><trkpt lat="43.7803017" lon="11.2157683"><ele>39.666666666666664</ele><time>2026-04-03T13:20:38.902Z</time></trkpt><trkpt lat="43.780345" lon="11.2156617"><ele>39.333333333333336</ele><time>2026-04-03T13:20:40.903Z</time></trkpt><trkpt lat="43.780385" lon="11.2155533"><ele>39.0</ele><time>2026-04-03T13:20:42.903Z</time></trkpt><trkpt lat="43.7804283" lon="11.2154417"><ele>39.0</ele><time>2026-04-03T13:20:44.902Z</time></trkpt><trkpt lat="43.7804767" lon="11.2153367"><ele>39.0</ele><time>2026-04-03T13:20:46.902Z</time></trkpt><trkpt lat="43.7805233" lon="11.21523"><ele>39.0</ele><time>2026-04-03T13:20:48.903Z</time></trkpt><trkpt lat="43.7805733" lon="11.2151267"><ele>39.0</ele><time>2026-04-03T13:20:50.903Z</time></trkpt><trkpt lat="43.78062" lon="11.2150133"><ele>39.0</ele><time>2026-04-03T13:20:52.903Z</time></trkpt><trkpt lat="43.780665" lon="11.2149033"><ele>39.142857142857146</ele><time>2026-04-03T13:20:54.902Z</time></trkpt><trkpt lat="43.7807083" lon="11.2148117"><ele>39.285714285714285</ele><time>2026-04-03T13:20:56.902Z</time></trkpt><trkpt lat="43.7807517" lon="11.2147233"><ele>39.42857142857143</ele><time>2026-04-03T13:20:58.903Z</time></trkpt><trkpt lat="43.780795" lon="11.2146417"><ele>39.57142857142857</ele><time>2026-04-03T13:21:00.902Z</time></trkpt><trkpt lat="43.78083" lon="11.2145683"><ele>39.714285714285715</ele><time>2026-04-03T13:21:02.902Z</time></trkpt><trkpt lat="43.780865" lon="11.2144917"><ele>39.857142857142854</ele><time>2026-04-03T13:21:04.902Z</time></trkpt><trkpt lat="43.7808983" lon="11.2144167"><ele>40.0</ele><time>2026-04-03T13:21:06.902Z</time></trkpt><trkpt lat="43.7809367" lon="11.2143367"><ele>40.0</ele><time>2026-04-03T13:21:08.903Z</time></trkpt><trkpt lat="43.7809733" lon="11.214255"><ele>40.0</ele><time>2026-04-03T13:21:10.902Z</time></trkpt><trkpt lat="43.7810083" lon="11.2141717"><ele>40.0</ele><time>2026-04-03T13:21:12.902Z</time></trkpt><trkpt lat="43.7810483" lon="11.21409"><ele>40.0</ele><time>2026-04-03T13:21:14.902Z</time></trkpt><trkpt lat="43.781085" lon="11.2140067"><ele>40.0</ele><time>2026-04-03T13:21:16.902Z</time></trkpt><trkpt lat="43.7811317" lon="11.2139317"><ele>40.0</ele><time>2026-04-03T13:21:18.902Z</time></trkpt><trkpt lat="43.7811767" lon="11.21386"><ele>40.0</ele><time>2026-04-03T13:21:20.902Z</time></trkpt><trkpt lat="43.7812233" lon="11.213775"><ele>39.333333333333336</ele><time>2026-04-03T13:21:22.902Z</time></trkpt><trkpt lat="43.7812667" lon="11.2136833"><ele>38.66666666666667</ele><time>2026-04-03T13:21:24.902Z</time></trkpt><trkpt lat="43.7813117" lon="11.2135933"><ele>38.0</ele><time>2026-04-03T13:21:26.902Z</time></trkpt><trkpt lat="43.7813567" lon="11.2135033"><ele>37.333333333333336</ele><time>2026-04-03T13:21:28.902Z</time></trkpt><trkpt lat="43.7814" lon="11.21341"><ele>36.666666666666664</ele><time>2026-04-03T13:21:30.903Z</time></trkpt><trkpt lat="43.7814433" lon="11.21333"><ele>36.0</ele><time>2026-04-03T13:21:32.902Z</time></trkpt><trkpt lat="43.78148" lon="11.2132433"><ele>36.42857142857143</ele><time>2026-04-03T13:21:34.902Z</time></trkpt><trkpt lat="43.781515" lon="11.2131517"><ele>36.85714285714286</ele><time>2026-04-03T13:21:36.903Z</time></trkpt><trkpt lat="43.781555" lon="11.2130717"><ele>37.28571428571429</ele><time>2026-04-03T13:21:38.902Z</time></trkpt><trkpt lat="43.7816017" lon="11.213005"><ele>37.714285714285715</ele><time>2026-04-03T13:21:40.902Z</time></trkpt><trkpt lat="43.78165" lon="11.2129"><ele>38.14285714285714</ele><time>2026-04-03T13:21:43.902Z</time></trkpt><trkpt lat="43.7816867" lon="11.2128267"><ele>38.57142857142858</ele><time>2026-04-03T13:21:45.902Z</time></trkpt><trkpt lat="43.78173" lon="11.2127533"><ele>39.0</ele><time>2026-04-03T13:21:47.903Z</time></trkpt><trkpt lat="43.7818017" lon="11.21268"><ele>39.0</ele><time>2026-04-03T13:21:50.902Z</time></trkpt><trkpt lat="43.7818367" lon="11.2125917"><ele>39.0</ele><time>2026-04-03T13:21:52.903Z</time></trkpt><trkpt lat="43.7818867" lon="11.2124767"><ele>39.0</ele><time>2026-04-03T13:21:54.902Z</time></trkpt><trkpt lat="43.7819383" lon="11.2123467"><ele>39.0</ele><time>2026-04-03T13:21:56.902Z</time></trkpt><trkpt lat="43.7819883" lon="11.2122183"><ele>39.0</ele><time>2026-04-03T13:21:58.902Z</time></trkpt><trkpt lat="43.7820317" lon="11.21211"><ele>38.0</ele><time>2026-04-03T13:22:00.902Z</time></trkpt><trkpt lat="43.78208" lon="11.2120017"><ele>37.0</ele><time>2026-04-03T13:22:02.902Z</time></trkpt><trkpt lat="43.7821283" lon="11.2119083"><ele>36.0</ele><time>2026-04-03T13:22:04.903Z</time></trkpt><trkpt lat="43.7821717" lon="11.21181"><ele>35.0</ele><time>2026-04-03T13:22:06.902Z</time></trkpt><trkpt lat="43.7822117" lon="11.21171"><ele>34.0</ele><time>2026-04-03T13:22:08.902Z</time></trkpt><trkpt lat="43.7822533" lon="11.21161"><ele>33.0</ele><time>2026-04-03T13:22:10.902Z</time></trkpt><trkpt lat="43.7822933" lon="11.21151"><ele>33.8</ele><time>2026-04-03T13:22:12.902Z</time></trkpt><trkpt lat="43.7823267" lon="11.2114067"><ele>34.599999999999994</ele><time>2026-04-03T13:22:14.902Z</time></trkpt><trkpt lat="43.7823817" lon="11.2112967"><ele>35.400000000000006</ele><time>2026-04-03T13:22:16.902Z</time></trkpt><trkpt lat="43.782435" lon="11.211175"><ele>36.2</ele><time>2026-04-03T13:22:18.902Z</time></trkpt><trkpt lat="43.7824717" lon="11.2110683"><ele>37.0</ele><time>2026-04-03T13:22:20.902Z</time></trkpt><trkpt lat="43.7825083" lon="11.21096"><ele>37.0</ele><time>2026-04-03T13:22:22.902Z</time></trkpt><trkpt lat="43.78255" lon="11.2108717"><ele>37.0</ele><time>2026-04-03T13:22:24.902Z</time></trkpt><trkpt lat="43.7825967" lon="11.2108117"><ele>37.0</ele><time>2026-04-03T13:22:26.902Z</time></trkpt><trkpt lat="43.7826433" lon="11.2107467"><ele>37.0</ele><time>2026-04-03T13:22:28.902Z</time></trkpt><trkpt lat="43.7826883" lon="11.2106567"><ele>37.0</ele><time>2026-04-03T13:22:30.902Z</time></trkpt><trkpt lat="43.7827383" lon="11.2105583"><ele>37.0</ele><time>2026-04-03T13:22:32.902Z</time></trkpt><trkpt lat="43.7827833" lon="11.210465"><ele>36.6</ele><time>2026-04-03T13:22:34.902Z</time></trkpt><trkpt lat="43.7828283" lon="11.2103633"><ele>36.2</ele><time>2026-04-03T13:22:36.903Z</time></trkpt><trkpt lat="43.7828733" lon="11.210245"><ele>35.8</ele><time>2026-04-03T13:22:38.902Z</time></trkpt><trkpt lat="43.7829083" lon="11.21013"><ele>35.4</ele><time>2026-04-03T13:22:40.902Z</time></trkpt><trkpt lat="43.7829533" lon="11.2100233"><ele>35.0</ele><time>2026-04-03T13:22:42.902Z</time></trkpt><trkpt lat="43.78301" lon="11.2099067"><ele>35.8</ele><time>2026-04-03T13:22:44.902Z</time></trkpt><trkpt lat="43.7830817" lon="11.209815"><ele>36.6</ele><time>2026-04-03T13:22:46.901Z</time></trkpt><trkpt lat="43.783135" lon="11.2097183"><ele>37.4</ele><time>2026-04-03T13:22:48.902Z</time></trkpt><trkpt lat="43.7831867" lon="11.2096117"><ele>38.2</ele><time>2026-04-03T13:22:50.901Z</time></trkpt><trkpt lat="43.7832417" lon="11.209505"><ele>39.0</ele><time>2026-04-03T13:22:52.901Z</time></trkpt><trkpt lat="43.783295" lon="11.2094017"><ele>39.0</ele><time>2026-04-03T13:22:54.901Z</time></trkpt><trkpt lat="43.7833317" lon="11.20929"><ele>39.0</ele><time>2026-04-03T13:22:56.901Z</time></trkpt><trkpt lat="43.7833533" lon="11.2091717"><ele>39.0</ele><time>2026-04-03T13:22:58.901Z</time></trkpt><trkpt lat="43.7833733" lon="11.20906"><ele>39.0</ele><time>2026-04-03T13:23:00.901Z</time></trkpt><trkpt lat="43.783395" lon="11.2089683"><ele>39.0</ele><time>2026-04-03T13:23:02.902Z</time></trkpt><trkpt lat="43.7834183" lon="11.2088633"><ele>39.0</ele><time>2026-04-03T13:23:04.902Z</time></trkpt><trkpt lat="43.7834483" lon="11.20877"><ele>39.333333333333336</ele><time>2026-04-03T13:23:06.901Z</time></trkpt><trkpt lat="43.78349" lon="11.2086683"><ele>39.666666666666664</ele><time>2026-04-03T13:23:08.902Z</time></trkpt><trkpt lat="43.7835317" lon="11.2085683"><ele>40.0</ele><time>2026-04-03T13:23:10.901Z</time></trkpt><trkpt lat="43.7835867" lon="11.208475"><ele>40.33333333333333</ele><time>2026-04-03T13:23:12.901Z</time></trkpt><trkpt lat="43.78363" lon="11.2083833"><ele>40.666666666666664</ele><time>2026-04-03T13:23:14.902Z</time></trkpt><trkpt lat="43.7836583" lon="11.2083033"><ele>41.0</ele><time>2026-04-03T13:23:16.901Z</time></trkpt><trkpt lat="43.7836733" lon="11.2082133"><ele>40.5</ele><time>2026-04-03T13:23:19.901Z</time></trkpt><trkpt lat="43.7836967" lon="11.208105"><ele>40.0</ele><time>2026-04-03T13:23:22.901Z</time></trkpt><trkpt lat="43.783745" lon="11.208005"><ele>39.5</ele><time>2026-04-03T13:23:25.901Z</time></trkpt><trkpt lat="43.7837883" lon="11.2078933"><ele>39.0</ele><time>2026-04-03T13:23:28.901Z</time></trkpt><trkpt lat="43.78383" lon="11.2078"><ele>38.5</ele><time>2026-04-03T13:23:30.901Z</time></trkpt><trkpt lat="43.783875" lon="11.2076967"><ele>38.0</ele><time>2026-04-03T13:23:32.901Z</time></trkpt><trkpt lat="43.78392" lon="11.207595"><ele>38.0</ele><time>2026-04-03T13:23:34.902Z</time></trkpt><trkpt lat="43.7839667" lon="11.2074967"><ele>38.0</ele><time>2026-04-03T13:23:36.902Z</time></trkpt><trkpt lat="43.7840133" lon="11.2073933"><ele>38.0</ele><time>2026-04-03T13:23:38.901Z</time></trkpt><trkpt lat="43.7840617" lon="11.2072883"><ele>38.0</ele><time>2026-04-03T13:23:40.901Z</time></trkpt><trkpt lat="43.7841083" lon="11.2071817"><ele>38.0</ele><time>2026-04-03T13:23:42.901Z</time></trkpt><trkpt lat="43.7841583" lon="11.207075"><ele>38.0</ele><time>2026-04-03T13:23:44.901Z</time></trkpt><trkpt lat="43.784215" lon="11.2069683"><ele>37.8</ele><time>2026-04-03T13:23:46.901Z</time></trkpt><trkpt lat="43.78427" lon="11.2068533"><ele>37.599999999999994</ele><time>2026-04-03T13:23:48.901Z</time></trkpt><trkpt lat="43.784325" lon="11.2067483"><ele>37.400000000000006</ele><time>2026-04-03T13:23:50.901Z</time></trkpt><trkpt lat="43.7843733" lon="11.2066483"><ele>37.2</ele><time>2026-04-03T13:23:52.901Z</time></trkpt><trkpt lat="43.7844217" lon="11.2065417"><ele>37.0</ele><time>2026-04-03T13:23:54.901Z</time></trkpt><trkpt lat="43.7844667" lon="11.2064383"><ele>37.6</ele><time>2026-04-03T13:23:56.901Z</time></trkpt><trkpt lat="43.7845167" lon="11.206335"><ele>38.2</ele><time>2026-04-03T13:23:58.901Z</time></trkpt><trkpt lat="43.7845733" lon="11.2062317"><ele>38.8</ele><time>2026-04-03T13:24:00.901Z</time></trkpt><trkpt lat="43.7846183" lon="11.2061217"><ele>39.4</ele><time>2026-04-03T13:24:02.901Z</time></trkpt><trkpt lat="43.7846717" lon="11.2060183"><ele>40.0</ele><time>2026-04-03T13:24:04.901Z</time></trkpt><trkpt lat="43.7847283" lon="11.2059033"><ele>40.0</ele><time>2026-04-03T13:24:06.901Z</time></trkpt><trkpt lat="43.7847783" lon="11.2057967"><ele>40.0</ele><time>2026-04-03T13:24:08.901Z</time></trkpt><trkpt lat="43.784825" lon="11.2056933"><ele>40.0</ele><time>2026-04-03T13:24:10.901Z</time></trkpt><trkpt lat="43.7848717" lon="11.2055967"><ele>40.0</ele><time>2026-04-03T13:24:12.902Z</time></trkpt><trkpt lat="43.7849183" lon="11.205495"><ele>40.0</ele><time>2026-04-03T13:24:14.901Z</time></trkpt><trkpt lat="43.78496" lon="11.2053917"><ele>40.0</ele><time>2026-04-03T13:24:16.902Z</time></trkpt><trkpt lat="43.7850067" lon="11.2052817"><ele>40.0</ele><time>2026-04-03T13:24:18.902Z</time></trkpt><trkpt lat="43.7850517" lon="11.2051717"><ele>40.0</ele><time>2026-04-03T13:24:20.901Z</time></trkpt><trkpt lat="43.7850783" lon="11.2050717"><ele>40.0</ele><time>2026-04-03T13:24:22.901Z</time></trkpt><trkpt lat="43.785055" lon="11.204975"><ele>40.0</ele><time>2026-04-03T13:24:24.901Z</time></trkpt><trkpt lat="43.7849867" lon="11.2049017"><ele>40.0</ele><time>2026-04-03T13:24:26.901Z</time></trkpt><trkpt lat="43.7849" lon="11.2048633"><ele>40.0</ele><time>2026-04-03T13:24:28.901Z</time></trkpt><trkpt lat="43.784815" lon="11.2048217"><ele>40.0</ele><time>2026-04-03T13:24:30.902Z</time></trkpt><trkpt lat="43.78473" lon="11.2047733"><ele>40.0</ele><time>2026-04-03T13:24:32.901Z</time></trkpt><trkpt lat="43.7846467" lon="11.2047367"><ele>40.0</ele><time>2026-04-03T13:24:34.902Z</time></trkpt><trkpt lat="43.7845467" lon="11.2047067"><ele>40.0</ele><time>2026-04-03T13:24:36.901Z</time></trkpt><trkpt lat="43.7844467" lon="11.2046667"><ele>40.0</ele><time>2026-04-03T13:24:38.901Z</time></trkpt><trkpt lat="43.7843517" lon="11.2046333"><ele>40.0</ele><time>2026-04-03T13:24:40.901Z</time></trkpt><trkpt lat="43.784255" lon="11.2045983"><ele>40.0</ele><time>2026-04-03T13:24:42.902Z</time></trkpt><trkpt lat="43.7841533" lon="11.2045633"><ele>40.0</ele><time>2026-04-03T13:24:44.902Z</time></trkpt><trkpt lat="43.7840517" lon="11.2045217"><ele>40.0</ele><time>2026-04-03T13:24:46.901Z</time></trkpt><trkpt lat="43.78396" lon="11.204475"><ele>40.0</ele><time>2026-04-03T13:24:48.902Z</time></trkpt><trkpt lat="43.7838667" lon="11.2044417"><ele>40.0</ele><time>2026-04-03T13:24:50.901Z</time></trkpt><trkpt lat="43.7837683" lon="11.20441"><ele>40.0</ele><time>2026-04-03T13:24:52.901Z</time></trkpt><trkpt lat="43.7836683" lon="11.204385"><ele>40.0</ele><time>2026-04-03T13:24:54.902Z</time></trkpt><trkpt lat="43.7835683" lon="11.2043533"><ele>40.0</ele><time>2026-04-03T13:24:56.901Z</time></trkpt><trkpt lat="43.7834583" lon="11.2043233"><ele>40.0</ele><time>2026-04-03T13:24:58.901Z</time></trkpt><trkpt lat="43.7833467" lon="11.2043033"><ele>40.0</ele><time>2026-04-03T13:25:00.901Z</time></trkpt><trkpt lat="43.78323" lon="11.204245"><ele>40.0</ele><time>2026-04-03T13:25:02.902Z</time></trkpt><trkpt lat="43.78313" lon="11.2042033"><ele>40.0</ele><time>2026-04-03T13:25:04.901Z</time></trkpt><trkpt lat="43.7830383" lon="11.2041733"><ele>40.0</ele><time>2026-04-03T13:25:06.901Z</time></trkpt><trkpt lat="43.7829517" lon="11.20413"><ele>40.0</ele><time>2026-04-03T13:25:08.901Z</time></trkpt><trkpt lat="43.7828383" lon="11.20409"><ele>40.0</ele><time>2026-04-03T13:25:10.901Z</time></trkpt><trkpt lat="43.7827267" lon="11.20404"><ele>40.0</ele><time>2026-04-03T13:25:12.901Z</time></trkpt><trkpt lat="43.7826217" lon="11.2039867"><ele>40.0</ele><time>2026-04-03T13:25:14.901Z</time></trkpt><trkpt lat="43.782515" lon="11.203945"><ele>40.0</ele><time>2026-04-03T13:25:16.902Z</time></trkpt><trkpt lat="43.7824217" lon="11.203905"><ele>40.0</ele><time>2026-04-03T13:25:18.901Z</time></trkpt><trkpt lat="43.7823367" lon="11.2039033"><ele>39.8</ele><time>2026-04-03T13:25:20.902Z</time></trkpt><trkpt lat="43.7822683" lon="11.20397"><ele>39.6</ele><time>2026-04-03T13:25:22.901Z</time></trkpt><trkpt lat="43.7822383" lon="11.2040833"><ele>39.4</ele><time>2026-04-03T13:25:24.901Z</time></trkpt><trkpt lat="43.7822017" lon="11.2042183"><ele>39.2</ele><time>2026-04-03T13:25:26.902Z</time></trkpt><trkpt lat="43.7821733" lon="11.20435"><ele>39.0</ele><time>2026-04-03T13:25:28.901Z</time></trkpt><trkpt lat="43.7821617" lon="11.2044917"><ele>39.0</ele><time>2026-04-03T13:25:30.901Z</time></trkpt><trkpt lat="43.782145" lon="11.2046183"><ele>39.0</ele><time>2026-04-03T13:25:32.901Z</time></trkpt><trkpt lat="43.7821333" lon="11.2047133"><ele>39.0</ele><time>2026-04-03T13:25:34.901Z</time></trkpt><trkpt lat="43.7821" lon="11.2048033"><ele>39.0</ele><time>2026-04-03T13:25:38.901Z</time></trkpt><trkpt lat="43.7820567" lon="11.2047233"><ele>39.0</ele><time>2026-04-03T13:25:44.901Z</time></trkpt><trkpt lat="43.7820217" lon="11.204585"><ele>39.0</ele><time>2026-04-03T13:25:57.901Z</time></trkpt><trkpt lat="43.7819433" lon="11.2045633"><ele>39.0</ele><time>2026-04-03T13:26:01.901Z</time></trkpt><trkpt lat="43.7818533" lon="11.2045217"><ele>39.0</ele><time>2026-04-03T13:26:04.901Z</time></trkpt><trkpt lat="43.7817783" lon="11.204505"><ele>39.0</ele><time>2026-04-03T13:26:06.901Z</time></trkpt><trkpt lat="43.781705" lon="11.20442"><ele>39.0</ele><time>2026-04-03T13:26:09.901Z</time></trkpt><trkpt lat="43.7816467" lon="11.204385"><ele>39.0</ele><time>2026-04-03T13:26:11.901Z</time></trkpt><trkpt lat="43.78156" lon="11.2044017"><ele>39.0</ele><time>2026-04-03T13:26:14.902Z</time></trkpt><trkpt lat="43.7814833" lon="11.20442"><ele>39.0</ele><time>2026-04-03T13:26:16.902Z</time></trkpt><trkpt lat="43.7813967" lon="11.20444"><ele>39.0</ele><time>2026-04-03T13:26:18.9Z</time></trkpt><trkpt lat="43.7813033" lon="11.2044733"><ele>39.0</ele><time>2026-04-03T13:26:20.9Z</time></trkpt><trkpt lat="43.7812067" lon="11.2045117"><ele>39.0</ele><time>2026-04-03T13:26:22.9Z</time></trkpt><trkpt lat="43.7811083" lon="11.2045367"><ele>39.0</ele><time>2026-04-03T13:26:24.9Z</time></trkpt><trkpt lat="43.7810233" lon="11.20456"><ele>38.833333333333336</ele><time>2026-04-03T13:26:26.901Z</time></trkpt><trkpt lat="43.7809383" lon="11.204585"><ele>38.666666666666664</ele><time>2026-04-03T13:26:28.9Z</time></trkpt><trkpt lat="43.7808633" lon="11.2046217"><ele>38.5</ele><time>2026-04-03T13:26:30.9Z</time></trkpt><trkpt lat="43.78078" lon="11.204655"><ele>38.33333333333333</ele><time>2026-04-03T13:26:32.9Z</time></trkpt><trkpt lat="43.7806933" lon="11.204685"><ele>38.166666666666664</ele><time>2026-04-03T13:26:34.9Z</time></trkpt><trkpt lat="43.7805983" lon="11.2046867"><ele>38.0</ele><time>2026-04-03T13:26:36.901Z</time></trkpt><trkpt lat="43.780515" lon="11.2047017"><ele>38.0</ele><time>2026-04-03T13:26:38.901Z</time></trkpt><trkpt lat="43.7804467" lon="11.20471"><ele>38.0</ele><time>2026-04-03T13:26:40.9Z</time></trkpt><trkpt lat="43.7803683" lon="11.20473"><ele>38.0</ele><time>2026-04-03T13:26:42.9Z</time></trkpt><trkpt lat="43.7802917" lon="11.2047467"><ele>38.0</ele><time>2026-04-03T13:26:44.9Z</time></trkpt><trkpt lat="43.7802183" lon="11.20477"><ele>38.0</ele><time>2026-04-03T13:26:46.9Z</time></trkpt><trkpt lat="43.7801333" lon="11.2048083"><ele>38.0</ele><time>2026-04-03T13:26:48.901Z</time></trkpt><trkpt lat="43.7800517" lon="11.20483"><ele>37.83333333333333</ele><time>2026-04-03T13:26:50.9Z</time></trkpt><trkpt lat="43.7799717" lon="11.20486"><ele>37.666666666666664</ele><time>2026-04-03T13:26:52.901Z</time></trkpt><trkpt lat="43.779895" lon="11.204885"><ele>37.5</ele><time>2026-04-03T13:26:54.9Z</time></trkpt><trkpt lat="43.779805" lon="11.2049233"><ele>37.333333333333336</ele><time>2026-04-03T13:26:56.901Z</time></trkpt><trkpt lat="43.7797267" lon="11.2049567"><ele>37.16666666666667</ele><time>2026-04-03T13:26:58.901Z</time></trkpt><trkpt lat="43.7796433" lon="11.2049367"><ele>37.0</ele><time>2026-04-03T13:27:01.9Z</time></trkpt><trkpt lat="43.7796033" lon="11.20484"><ele>37.16666666666667</ele><time>2026-04-03T13:27:04.9Z</time></trkpt><trkpt lat="43.77959" lon="11.2047283"><ele>37.333333333333336</ele><time>2026-04-03T13:27:07.9Z</time></trkpt><trkpt lat="43.7795917" lon="11.2046317"><ele>37.5</ele><time>2026-04-03T13:27:09.9Z</time></trkpt><trkpt lat="43.779595" lon="11.20454"><ele>37.666666666666664</ele><time>2026-04-03T13:27:11.901Z</time></trkpt><trkpt lat="43.779605" lon="11.2044067"><ele>37.83333333333333</ele><time>2026-04-03T13:27:13.9Z</time></trkpt><trkpt lat="43.7796233" lon="11.2042883"><ele>38.0</ele><time>2026-04-03T13:27:15.9Z</time></trkpt><trkpt lat="43.7796367" lon="11.2041667"><ele>38.0</ele><time>2026-04-03T13:27:17.901Z</time></trkpt><trkpt lat="43.7796617" lon="11.20405"><ele>38.0</ele><time>2026-04-03T13:27:19.901Z</time></trkpt><trkpt lat="43.7796933" lon="11.2039367"><ele>38.0</ele><time>2026-04-03T13:27:21.9Z</time></trkpt><trkpt lat="43.77972" lon="11.20384"><ele>38.0</ele><time>2026-04-03T13:27:23.9Z</time></trkpt><trkpt lat="43.779745" lon="11.20374"><ele>38.0</ele><time>2026-04-03T13:27:25.9Z</time></trkpt><trkpt lat="43.779765" lon="11.20364"><ele>38.0</ele><time>2026-04-03T13:27:27.9Z</time></trkpt><trkpt lat="43.7797817" lon="11.203545"><ele>38.285714285714285</ele><time>2026-04-03T13:27:29.9Z</time></trkpt><trkpt lat="43.7798083" lon="11.2034517"><ele>38.57142857142858</ele><time>2026-04-03T13:27:31.9Z</time></trkpt><trkpt lat="43.779835" lon="11.2033483"><ele>38.85714285714286</ele><time>2026-04-03T13:27:33.9Z</time></trkpt><trkpt lat="43.7798533" lon="11.20325"><ele>39.14285714285714</ele><time>2026-04-03T13:27:35.9Z</time></trkpt><trkpt lat="43.7798767" lon="11.20314"><ele>39.42857142857143</ele><time>2026-04-03T13:27:37.9Z</time></trkpt><trkpt lat="43.7798817" lon="11.2030367"><ele>39.714285714285715</ele><time>2026-04-03T13:27:39.9Z</time></trkpt><trkpt lat="43.7798967" lon="11.2029467"><ele>40.0</ele><time>2026-04-03T13:27:41.9Z</time></trkpt><trkpt lat="43.7799067" lon="11.2028367"><ele>40.0</ele><time>2026-04-03T13:27:43.9Z</time></trkpt><trkpt lat="43.7799217" lon="11.2027233"><ele>40.0</ele><time>2026-04-03T13:27:45.9Z</time></trkpt><trkpt lat="43.7799433" lon="11.2026167"><ele>40.0</ele><time>2026-04-03T13:27:47.9Z</time></trkpt><trkpt lat="43.77996" lon="11.2024983"><ele>40.0</ele><time>2026-04-03T13:27:49.9Z</time></trkpt><trkpt lat="43.7799767" lon="11.20238"><ele>40.0</ele><time>2026-04-03T13:27:51.9Z</time></trkpt><trkpt lat="43.7799933" lon="11.2022667"><ele>40.0</ele><time>2026-04-03T13:27:53.9Z</time></trkpt><trkpt lat="43.7800067" lon="11.2021417"><ele>40.14285714285714</ele><time>2026-04-03T13:27:55.9Z</time></trkpt><trkpt lat="43.780025" lon="11.2020283"><ele>40.285714285714285</ele><time>2026-04-03T13:27:57.9Z</time></trkpt><trkpt lat="43.7800383" lon="11.20192"><ele>40.42857142857143</ele><time>2026-04-03T13:27:59.9Z</time></trkpt><trkpt lat="43.780045" lon="11.2018133"><ele>40.57142857142857</ele><time>2026-04-03T13:28:01.9Z</time></trkpt><trkpt lat="43.7800533" lon="11.201725"><ele>40.714285714285715</ele><time>2026-04-03T13:28:03.9Z</time></trkpt><trkpt lat="43.7800133" lon="11.2016483"><ele>40.857142857142854</ele><time>2026-04-03T13:28:05.9Z</time></trkpt><trkpt lat="43.7799483" lon="11.2016167"><ele>41.0</ele><time>2026-04-03T13:28:07.9Z</time></trkpt><trkpt lat="43.7798733" lon="11.201565"><ele>41.0</ele><time>2026-04-03T13:28:09.9Z</time></trkpt><trkpt lat="43.77979" lon="11.2015183"><ele>41.0</ele><time>2026-04-03T13:28:11.9Z</time></trkpt><trkpt lat="43.7797033" lon="11.2014717"><ele>41.0</ele><time>2026-04-03T13:28:13.9Z</time></trkpt><trkpt lat="43.7796433" lon="11.2014033"><ele>41.0</ele><time>2026-04-03T13:28:15.901Z</time></trkpt><trkpt lat="43.7795867" lon="11.2013583"><ele>41.0</ele><time>2026-04-03T13:28:17.9Z</time></trkpt><trkpt lat="43.7795233" lon="11.2012933"><ele>41.0</ele><time>2026-04-03T13:28:19.9Z</time></trkpt><trkpt lat="43.7794417" lon="11.2012417"><ele>40.83333333333333</ele><time>2026-04-03T13:28:21.9Z</time></trkpt><trkpt lat="43.77936" lon="11.2012"><ele>40.666666666666664</ele><time>2026-04-03T13:28:23.901Z</time></trkpt><trkpt lat="43.7792833" lon="11.2011567"><ele>40.5</ele><time>2026-04-03T13:28:25.9Z</time></trkpt><trkpt lat="43.77921" lon="11.20111"><ele>40.333333333333336</ele><time>2026-04-03T13:28:27.9Z</time></trkpt><trkpt lat="43.7791283" lon="11.20106"><ele>40.16666666666667</ele><time>2026-04-03T13:28:29.9Z</time></trkpt><trkpt lat="43.77905" lon="11.20101"><ele>40.0</ele><time>2026-04-03T13:28:31.901Z</time></trkpt><trkpt lat="43.778985" lon="11.2009433"><ele>40.0</ele><time>2026-04-03T13:28:33.9Z</time></trkpt><trkpt lat="43.778915" lon="11.2008783"><ele>40.0</ele><time>2026-04-03T13:28:35.9Z</time></trkpt><trkpt lat="43.77884" lon="11.2008267"><ele>40.0</ele><time>2026-04-03T13:28:37.9Z</time></trkpt><trkpt lat="43.7787717" lon="11.200775"><ele>40.0</ele><time>2026-04-03T13:28:39.9Z</time></trkpt><trkpt lat="43.7786983" lon="11.2007217"><ele>40.0</ele><time>2026-04-03T13:28:41.9Z</time></trkpt><trkpt lat="43.77862" lon="11.200675"><ele>40.0</ele><time>2026-04-03T13:28:43.9Z</time></trkpt><trkpt lat="43.7785533" lon="11.20064"><ele>40.0</ele><time>2026-04-03T13:28:45.9Z</time></trkpt><trkpt lat="43.7784767" lon="11.2006533"><ele>40.0</ele><time>2026-04-03T13:28:47.9Z</time></trkpt><trkpt lat="43.778415" lon="11.20068"><ele>40.0</ele><time>2026-04-03T13:28:49.9Z</time></trkpt><trkpt lat="43.7783283" lon="11.20063"><ele>40.0</ele><time>2026-04-03T13:28:52.9Z</time></trkpt><trkpt lat="43.77823" lon="11.20055"><ele>40.0</ele><time>2026-04-03T13:31:07.899Z</time></trkpt><trkpt lat="43.778185" lon="11.2004683"><ele>40.0</ele><time>2026-04-03T13:31:10.899Z</time></trkpt><trkpt lat="43.77816" lon="11.2003783"><ele>40.0</ele><time>2026-04-03T13:31:13.899Z</time></trkpt><trkpt lat="43.7781017" lon="11.2003333"><ele>40.0</ele><time>2026-04-03T13:31:15.899Z</time></trkpt><trkpt lat="43.77807" lon="11.2002567"><ele>40.0</ele><time>2026-04-03T13:31:18.9Z</time></trkpt><trkpt lat="43.7780183" lon="11.20018"><ele>40.0</ele><time>2026-04-03T13:31:22.899Z</time></trkpt></trkseg></trk></gpx>